<?xml version="1.0" encoding="UTF-8" standalone="no" ?>
<gpx xmlns="http://www.topografix.com/GPX/1/1" xmlns:xsi="http://www.w3.org/2001/XMLSchema-instance" xsi:schemaLocation="http://www.topografix.com/GPX/1/1 http://www.topografix.com/GPX/1/1/gpx.xsd" version="1.1" creator="VisuGPX - https://www.visugpx.com">
  <metadata>
    <name>source bleue</name>
    <desc><![CDATA[demi journée  source bleue]]></desc>
  </metadata>
  <trk>
    <name><![CDATA[source bleue]]></name>
    <trkseg>
      <trkpt lat="46.81073" lon="6.32219">
        <ele>834</ele>
        <time>2012-06-04T12:32:51Z</time>
      </trkpt>
      <trkpt lat="46.81073" lon="6.32219">
        <ele>837</ele>
        <time>2012-06-04T12:32:57Z</time>
      </trkpt>
      <trkpt lat="46.81073" lon="6.32219">
        <ele>843</ele>
        <time>2012-06-04T12:33:00Z</time>
      </trkpt>
      <trkpt lat="46.81073" lon="6.32219">
        <ele>846</ele>
        <time>2012-06-04T12:33:02Z</time>
      </trkpt>
      <trkpt lat="46.81073" lon="6.32219">
        <ele>849</ele>
        <time>2012-06-04T12:33:05Z</time>
      </trkpt>
      <trkpt lat="46.81073" lon="6.32219">
        <ele>853</ele>
        <time>2012-06-04T12:33:08Z</time>
      </trkpt>
      <trkpt lat="46.81073" lon="6.32219">
        <ele>857</ele>
        <time>2012-06-04T12:33:11Z</time>
      </trkpt>
      <trkpt lat="46.81073" lon="6.32219">
        <ele>860</ele>
        <time>2012-06-04T12:33:14Z</time>
      </trkpt>
      <trkpt lat="46.81074" lon="6.32219">
        <ele>864</ele>
        <time>2012-06-04T12:33:18Z</time>
      </trkpt>
      <trkpt lat="46.81074" lon="6.32218">
        <ele>867</ele>
        <time>2012-06-04T12:33:22Z</time>
      </trkpt>
      <trkpt lat="46.81074" lon="6.32218">
        <ele>870</ele>
        <time>2012-06-04T12:33:26Z</time>
      </trkpt>
      <trkpt lat="46.81074" lon="6.32219">
        <ele>874</ele>
        <time>2012-06-04T12:33:32Z</time>
      </trkpt>
      <trkpt lat="46.81074" lon="6.32217">
        <ele>875</ele>
        <time>2012-06-04T12:33:37Z</time>
      </trkpt>
      <trkpt lat="46.81074" lon="6.32216">
        <ele>877</ele>
        <time>2012-06-04T12:33:41Z</time>
      </trkpt>
      <trkpt lat="46.81074" lon="6.32215">
        <ele>881</ele>
        <time>2012-06-04T12:33:50Z</time>
      </trkpt>
      <trkpt lat="46.81075" lon="6.3221">
        <ele>884</ele>
        <time>2012-06-04T12:34:05Z</time>
      </trkpt>
      <trkpt lat="46.81075" lon="6.32214">
        <ele>885</ele>
        <time>2012-06-04T12:34:19Z</time>
      </trkpt>
      <trkpt lat="46.8108" lon="6.32217">
        <ele>885</ele>
        <time>2012-06-04T12:35:18Z</time>
      </trkpt>
      <trkpt lat="46.81079" lon="6.32216">
        <ele>886</ele>
        <time>2012-06-04T12:37:18Z</time>
      </trkpt>
      <trkpt lat="46.81082" lon="6.32217">
        <ele>886</ele>
        <time>2012-06-04T12:37:41Z</time>
      </trkpt>
      <trkpt lat="46.81081" lon="6.32217">
        <ele>883</ele>
        <time>2012-06-04T12:37:53Z</time>
      </trkpt>
      <trkpt lat="46.81072" lon="6.32223">
        <ele>885</ele>
        <time>2012-06-04T12:38:11Z</time>
      </trkpt>
      <trkpt lat="46.81075" lon="6.32224">
        <ele>890</ele>
        <time>2012-06-04T12:38:40Z</time>
      </trkpt>
      <trkpt lat="46.81075" lon="6.32223">
        <ele>886</ele>
        <time>2012-06-04T12:38:41Z</time>
      </trkpt>
      <trkpt lat="46.81077" lon="6.32223">
        <ele>885</ele>
        <time>2012-06-04T12:40:34Z</time>
      </trkpt>
      <trkpt lat="46.81077" lon="6.32225">
        <ele>888</ele>
        <time>2012-06-04T12:40:50Z</time>
      </trkpt>
      <trkpt lat="46.81077" lon="6.32225">
        <ele>885</ele>
        <time>2012-06-04T12:40:51Z</time>
      </trkpt>
      <trkpt lat="46.81077" lon="6.32225">
        <ele>885</ele>
        <time>2012-06-04T12:40:52Z</time>
      </trkpt>
      <trkpt lat="46.8108" lon="6.32213">
        <ele>884</ele>
        <time>2012-06-04T12:42:44Z</time>
      </trkpt>
      <trkpt lat="46.81085" lon="6.32201">
        <ele>884</ele>
        <time>2012-06-04T12:42:53Z</time>
      </trkpt>
      <trkpt lat="46.81081" lon="6.32194">
        <ele>884</ele>
        <time>2012-06-04T12:43:01Z</time>
      </trkpt>
      <trkpt lat="46.81067" lon="6.32183">
        <ele>884</ele>
        <time>2012-06-04T12:43:18Z</time>
      </trkpt>
      <trkpt lat="46.8105" lon="6.32156">
        <ele>884</ele>
        <time>2012-06-04T12:43:38Z</time>
      </trkpt>
      <trkpt lat="46.81034" lon="6.32141">
        <ele>884</ele>
        <time>2012-06-04T12:43:56Z</time>
      </trkpt>
      <trkpt lat="46.81039" lon="6.32121">
        <ele>883</ele>
        <time>2012-06-04T12:44:10Z</time>
      </trkpt>
      <trkpt lat="46.81043" lon="6.32119">
        <ele>883</ele>
        <time>2012-06-04T12:44:13Z</time>
      </trkpt>
      <trkpt lat="46.81061" lon="6.32115">
        <ele>883</ele>
        <time>2012-06-04T12:44:27Z</time>
      </trkpt>
      <trkpt lat="46.81064" lon="6.32116">
        <ele>882</ele>
        <time>2012-06-04T12:44:30Z</time>
      </trkpt>
      <trkpt lat="46.81085" lon="6.32116">
        <ele>881</ele>
        <time>2012-06-04T12:44:46Z</time>
      </trkpt>
      <trkpt lat="46.81108" lon="6.32114">
        <ele>881</ele>
        <time>2012-06-04T12:45:04Z</time>
      </trkpt>
      <trkpt lat="46.81126" lon="6.32117">
        <ele>883</ele>
        <time>2012-06-04T12:45:26Z</time>
      </trkpt>
      <trkpt lat="46.81134" lon="6.32113">
        <ele>884</ele>
        <time>2012-06-04T12:45:31Z</time>
      </trkpt>
      <trkpt lat="46.81166" lon="6.32104">
        <ele>884</ele>
        <time>2012-06-04T12:45:47Z</time>
      </trkpt>
      <trkpt lat="46.81169" lon="6.32105">
        <ele>884</ele>
        <time>2012-06-04T12:45:49Z</time>
      </trkpt>
      <trkpt lat="46.81192" lon="6.32097">
        <ele>884</ele>
        <time>2012-06-04T12:45:57Z</time>
      </trkpt>
      <trkpt lat="46.81203" lon="6.32088">
        <ele>884</ele>
        <time>2012-06-04T12:46:10Z</time>
      </trkpt>
      <trkpt lat="46.81209" lon="6.32078">
        <ele>884</ele>
        <time>2012-06-04T12:46:15Z</time>
      </trkpt>
      <trkpt lat="46.81201" lon="6.32056">
        <ele>883</ele>
        <time>2012-06-04T12:46:32Z</time>
      </trkpt>
      <trkpt lat="46.81198" lon="6.32052">
        <ele>883</ele>
        <time>2012-06-04T12:46:34Z</time>
      </trkpt>
      <trkpt lat="46.81192" lon="6.32027">
        <ele>883</ele>
        <time>2012-06-04T12:46:47Z</time>
      </trkpt>
      <trkpt lat="46.81198" lon="6.32014">
        <ele>884</ele>
        <time>2012-06-04T12:46:57Z</time>
      </trkpt>
      <trkpt lat="46.81201" lon="6.31998">
        <ele>884</ele>
        <time>2012-06-04T12:47:06Z</time>
      </trkpt>
      <trkpt lat="46.812" lon="6.31994">
        <ele>883</ele>
        <time>2012-06-04T12:47:08Z</time>
      </trkpt>
      <trkpt lat="46.81203" lon="6.31982">
        <ele>884</ele>
        <time>2012-06-04T12:47:15Z</time>
      </trkpt>
      <trkpt lat="46.81209" lon="6.31962">
        <ele>884</ele>
        <time>2012-06-04T12:47:28Z</time>
      </trkpt>
      <trkpt lat="46.81207" lon="6.31956">
        <ele>884</ele>
        <time>2012-06-04T12:47:30Z</time>
      </trkpt>
      <trkpt lat="46.81206" lon="6.31926">
        <ele>885</ele>
        <time>2012-06-04T12:47:46Z</time>
      </trkpt>
      <trkpt lat="46.81208" lon="6.31897">
        <ele>885</ele>
        <time>2012-06-04T12:48:08Z</time>
      </trkpt>
      <trkpt lat="46.81223" lon="6.3188">
        <ele>884</ele>
        <time>2012-06-04T12:48:31Z</time>
      </trkpt>
      <trkpt lat="46.81264" lon="6.31856">
        <ele>882</ele>
        <time>2012-06-04T12:48:57Z</time>
      </trkpt>
      <trkpt lat="46.81299" lon="6.31835">
        <ele>881</ele>
        <time>2012-06-04T12:49:18Z</time>
      </trkpt>
      <trkpt lat="46.81312" lon="6.31831">
        <ele>880</ele>
        <time>2012-06-04T12:49:25Z</time>
      </trkpt>
      <trkpt lat="46.81327" lon="6.31839">
        <ele>880</ele>
        <time>2012-06-04T12:49:42Z</time>
      </trkpt>
      <trkpt lat="46.81341" lon="6.31844">
        <ele>879</ele>
        <time>2012-06-04T12:49:57Z</time>
      </trkpt>
      <trkpt lat="46.81356" lon="6.3185">
        <ele>880</ele>
        <time>2012-06-04T12:50:12Z</time>
      </trkpt>
      <trkpt lat="46.81363" lon="6.31837">
        <ele>881</ele>
        <time>2012-06-04T12:50:24Z</time>
      </trkpt>
      <trkpt lat="46.81364" lon="6.31831">
        <ele>881</ele>
        <time>2012-06-04T12:50:27Z</time>
      </trkpt>
      <trkpt lat="46.81363" lon="6.31824">
        <ele>881</ele>
        <time>2012-06-04T12:50:31Z</time>
      </trkpt>
      <trkpt lat="46.81368" lon="6.318">
        <ele>881</ele>
        <time>2012-06-04T12:50:46Z</time>
      </trkpt>
      <trkpt lat="46.81395" lon="6.31779">
        <ele>882</ele>
        <time>2012-06-04T12:51:05Z</time>
      </trkpt>
      <trkpt lat="46.81403" lon="6.31774">
        <ele>882</ele>
        <time>2012-06-04T12:51:12Z</time>
      </trkpt>
      <trkpt lat="46.81422" lon="6.31753">
        <ele>884</ele>
        <time>2012-06-04T12:51:29Z</time>
      </trkpt>
      <trkpt lat="46.81432" lon="6.31743">
        <ele>884</ele>
        <time>2012-06-04T12:51:39Z</time>
      </trkpt>
      <trkpt lat="46.81435" lon="6.31714">
        <ele>886</ele>
        <time>2012-06-04T12:51:59Z</time>
      </trkpt>
      <trkpt lat="46.81431" lon="6.31711">
        <ele>886</ele>
        <time>2012-06-04T12:52:06Z</time>
      </trkpt>
      <trkpt lat="46.8142" lon="6.31701">
        <ele>889</ele>
        <time>2012-06-04T12:52:21Z</time>
      </trkpt>
      <trkpt lat="46.81417" lon="6.31698">
        <ele>890</ele>
        <time>2012-06-04T12:52:24Z</time>
      </trkpt>
      <trkpt lat="46.81415" lon="6.31693">
        <ele>890</ele>
        <time>2012-06-04T12:52:27Z</time>
      </trkpt>
      <trkpt lat="46.81405" lon="6.31663">
        <ele>891</ele>
        <time>2012-06-04T12:52:44Z</time>
      </trkpt>
      <trkpt lat="46.81387" lon="6.31629">
        <ele>892</ele>
        <time>2012-06-04T12:53:04Z</time>
      </trkpt>
      <trkpt lat="46.81377" lon="6.316">
        <ele>895</ele>
        <time>2012-06-04T12:53:21Z</time>
      </trkpt>
      <trkpt lat="46.81363" lon="6.31593">
        <ele>896</ele>
        <time>2012-06-04T12:53:39Z</time>
      </trkpt>
      <trkpt lat="46.81348" lon="6.31581">
        <ele>896</ele>
        <time>2012-06-04T12:53:56Z</time>
      </trkpt>
      <trkpt lat="46.81326" lon="6.31557">
        <ele>899</ele>
        <time>2012-06-04T12:54:18Z</time>
      </trkpt>
      <trkpt lat="46.81324" lon="6.31544">
        <ele>898</ele>
        <time>2012-06-04T12:54:30Z</time>
      </trkpt>
      <trkpt lat="46.81323" lon="6.31516">
        <ele>898</ele>
        <time>2012-06-04T12:54:49Z</time>
      </trkpt>
      <trkpt lat="46.81315" lon="6.3151">
        <ele>898</ele>
        <time>2012-06-04T12:54:57Z</time>
      </trkpt>
      <trkpt lat="46.81313" lon="6.31508">
        <ele>898</ele>
        <time>2012-06-04T12:54:59Z</time>
      </trkpt>
      <trkpt lat="46.81292" lon="6.3149">
        <ele>900</ele>
        <time>2012-06-04T12:55:19Z</time>
      </trkpt>
      <trkpt lat="46.81291" lon="6.31489">
        <ele>900</ele>
        <time>2012-06-04T12:55:20Z</time>
      </trkpt>
      <trkpt lat="46.81285" lon="6.31486">
        <ele>901</ele>
        <time>2012-06-04T12:55:26Z</time>
      </trkpt>
      <trkpt lat="46.81278" lon="6.31484">
        <ele>901</ele>
        <time>2012-06-04T12:55:35Z</time>
      </trkpt>
      <trkpt lat="46.81262" lon="6.31469">
        <ele>902</ele>
        <time>2012-06-04T12:55:50Z</time>
      </trkpt>
      <trkpt lat="46.8126" lon="6.31469">
        <ele>902</ele>
        <time>2012-06-04T12:55:51Z</time>
      </trkpt>
      <trkpt lat="46.81247" lon="6.31453">
        <ele>904</ele>
        <time>2012-06-04T12:56:06Z</time>
      </trkpt>
      <trkpt lat="46.81237" lon="6.31444">
        <ele>906</ele>
        <time>2012-06-04T12:56:17Z</time>
      </trkpt>
      <trkpt lat="46.81218" lon="6.31424">
        <ele>908</ele>
        <time>2012-06-04T12:56:37Z</time>
      </trkpt>
      <trkpt lat="46.81198" lon="6.31399">
        <ele>910</ele>
        <time>2012-06-04T12:56:58Z</time>
      </trkpt>
      <trkpt lat="46.8119" lon="6.31392">
        <ele>911</ele>
        <time>2012-06-04T12:57:06Z</time>
      </trkpt>
      <trkpt lat="46.81187" lon="6.31389">
        <ele>911</ele>
        <time>2012-06-04T12:57:09Z</time>
      </trkpt>
      <trkpt lat="46.81183" lon="6.31388">
        <ele>911</ele>
        <time>2012-06-04T12:57:12Z</time>
      </trkpt>
      <trkpt lat="46.81169" lon="6.31369">
        <ele>912</ele>
        <time>2012-06-04T12:57:29Z</time>
      </trkpt>
      <trkpt lat="46.81157" lon="6.31343">
        <ele>912</ele>
        <time>2012-06-04T12:57:47Z</time>
      </trkpt>
      <trkpt lat="46.81144" lon="6.31319">
        <ele>914</ele>
        <time>2012-06-04T12:58:04Z</time>
      </trkpt>
      <trkpt lat="46.81125" lon="6.31296">
        <ele>917</ele>
        <time>2012-06-04T12:58:24Z</time>
      </trkpt>
      <trkpt lat="46.81123" lon="6.31294">
        <ele>917</ele>
        <time>2012-06-04T12:58:26Z</time>
      </trkpt>
      <trkpt lat="46.81104" lon="6.31266">
        <ele>917</ele>
        <time>2012-06-04T12:58:47Z</time>
      </trkpt>
      <trkpt lat="46.81089" lon="6.31246">
        <ele>919</ele>
        <time>2012-06-04T12:59:04Z</time>
      </trkpt>
      <trkpt lat="46.81074" lon="6.31227">
        <ele>921</ele>
        <time>2012-06-04T12:59:22Z</time>
      </trkpt>
      <trkpt lat="46.81046" lon="6.31206">
        <ele>923</ele>
        <time>2012-06-04T12:59:49Z</time>
      </trkpt>
      <trkpt lat="46.81029" lon="6.31197">
        <ele>924</ele>
        <time>2012-06-04T13:00:05Z</time>
      </trkpt>
      <trkpt lat="46.81011" lon="6.31203">
        <ele>925</ele>
        <time>2012-06-04T13:00:23Z</time>
      </trkpt>
      <trkpt lat="46.80996" lon="6.312">
        <ele>926</ele>
        <time>2012-06-04T13:00:37Z</time>
      </trkpt>
      <trkpt lat="46.80974" lon="6.31176">
        <ele>928</ele>
        <time>2012-06-04T13:00:57Z</time>
      </trkpt>
      <trkpt lat="46.80942" lon="6.3114">
        <ele>929</ele>
        <time>2012-06-04T13:01:18Z</time>
      </trkpt>
      <trkpt lat="46.80927" lon="6.31117">
        <ele>929</ele>
        <time>2012-06-04T13:01:32Z</time>
      </trkpt>
      <trkpt lat="46.80911" lon="6.3109">
        <ele>931</ele>
        <time>2012-06-04T13:01:51Z</time>
      </trkpt>
      <trkpt lat="46.809" lon="6.31075">
        <ele>933</ele>
        <time>2012-06-04T13:02:05Z</time>
      </trkpt>
      <trkpt lat="46.80888" lon="6.31075">
        <ele>935</ele>
        <time>2012-06-04T13:02:19Z</time>
      </trkpt>
      <trkpt lat="46.80879" lon="6.3108">
        <ele>936</ele>
        <time>2012-06-04T13:02:27Z</time>
      </trkpt>
      <trkpt lat="46.80859" lon="6.31057">
        <ele>937</ele>
        <time>2012-06-04T13:02:46Z</time>
      </trkpt>
      <trkpt lat="46.80842" lon="6.31028">
        <ele>939</ele>
        <time>2012-06-04T13:03:07Z</time>
      </trkpt>
      <trkpt lat="46.80829" lon="6.31008">
        <ele>942</ele>
        <time>2012-06-04T13:03:24Z</time>
      </trkpt>
      <trkpt lat="46.80815" lon="6.30989">
        <ele>944</ele>
        <time>2012-06-04T13:03:42Z</time>
      </trkpt>
      <trkpt lat="46.80807" lon="6.30967">
        <ele>944</ele>
        <time>2012-06-04T13:04:04Z</time>
      </trkpt>
      <trkpt lat="46.80805" lon="6.30957">
        <ele>942</ele>
        <time>2012-06-04T13:04:14Z</time>
      </trkpt>
      <trkpt lat="46.80796" lon="6.30961">
        <ele>943</ele>
        <time>2012-06-04T13:04:32Z</time>
      </trkpt>
      <trkpt lat="46.80792" lon="6.3096">
        <ele>942</ele>
        <time>2012-06-04T13:04:36Z</time>
      </trkpt>
      <trkpt lat="46.80776" lon="6.30939">
        <ele>943</ele>
        <time>2012-06-04T13:04:51Z</time>
      </trkpt>
      <trkpt lat="46.80752" lon="6.30903">
        <ele>945</ele>
        <time>2012-06-04T13:05:16Z</time>
      </trkpt>
      <trkpt lat="46.80737" lon="6.30887">
        <ele>946</ele>
        <time>2012-06-04T13:05:34Z</time>
      </trkpt>
      <trkpt lat="46.80731" lon="6.30875">
        <ele>950</ele>
        <time>2012-06-04T13:05:46Z</time>
      </trkpt>
      <trkpt lat="46.80728" lon="6.30874">
        <ele>951</ele>
        <time>2012-06-04T13:05:50Z</time>
      </trkpt>
      <trkpt lat="46.8071" lon="6.30851">
        <ele>953</ele>
        <time>2012-06-04T13:06:08Z</time>
      </trkpt>
      <trkpt lat="46.80708" lon="6.3085">
        <ele>953</ele>
        <time>2012-06-04T13:06:09Z</time>
      </trkpt>
      <trkpt lat="46.80706" lon="6.30852">
        <ele>954</ele>
        <time>2012-06-04T13:06:11Z</time>
      </trkpt>
      <trkpt lat="46.80704" lon="6.30854">
        <ele>954</ele>
        <time>2012-06-04T13:06:13Z</time>
      </trkpt>
      <trkpt lat="46.8069" lon="6.30859">
        <ele>957</ele>
        <time>2012-06-04T13:06:28Z</time>
      </trkpt>
      <trkpt lat="46.8068" lon="6.30873">
        <ele>960</ele>
        <time>2012-06-04T13:06:42Z</time>
      </trkpt>
      <trkpt lat="46.80673" lon="6.30877">
        <ele>963</ele>
        <time>2012-06-04T13:06:52Z</time>
      </trkpt>
      <trkpt lat="46.80667" lon="6.3088">
        <ele>965</ele>
        <time>2012-06-04T13:07:01Z</time>
      </trkpt>
      <trkpt lat="46.80645" lon="6.30881">
        <ele>968</ele>
        <time>2012-06-04T13:07:20Z</time>
      </trkpt>
      <trkpt lat="46.80625" lon="6.30881">
        <ele>970</ele>
        <time>2012-06-04T13:07:38Z</time>
      </trkpt>
      <trkpt lat="46.80607" lon="6.30874">
        <ele>971</ele>
        <time>2012-06-04T13:07:54Z</time>
      </trkpt>
      <trkpt lat="46.80602" lon="6.30877">
        <ele>972</ele>
        <time>2012-06-04T13:07:59Z</time>
      </trkpt>
      <trkpt lat="46.80596" lon="6.30874">
        <ele>973</ele>
        <time>2012-06-04T13:08:05Z</time>
      </trkpt>
      <trkpt lat="46.80576" lon="6.30866">
        <ele>976</ele>
        <time>2012-06-04T13:08:23Z</time>
      </trkpt>
      <trkpt lat="46.80561" lon="6.30868">
        <ele>979</ele>
        <time>2012-06-04T13:08:38Z</time>
      </trkpt>
      <trkpt lat="46.80536" lon="6.30861">
        <ele>982</ele>
        <time>2012-06-04T13:09:00Z</time>
      </trkpt>
      <trkpt lat="46.80512" lon="6.3086">
        <ele>984</ele>
        <time>2012-06-04T13:09:22Z</time>
      </trkpt>
      <trkpt lat="46.80497" lon="6.30867">
        <ele>985</ele>
        <time>2012-06-04T13:09:35Z</time>
      </trkpt>
      <trkpt lat="46.80488" lon="6.30869">
        <ele>986</ele>
        <time>2012-06-04T13:09:44Z</time>
      </trkpt>
      <trkpt lat="46.80468" lon="6.30849">
        <ele>988</ele>
        <time>2012-06-04T13:10:03Z</time>
      </trkpt>
      <trkpt lat="46.80447" lon="6.30827">
        <ele>991</ele>
        <time>2012-06-04T13:10:26Z</time>
      </trkpt>
      <trkpt lat="46.8043" lon="6.30803">
        <ele>992</ele>
        <time>2012-06-04T13:10:46Z</time>
      </trkpt>
      <trkpt lat="46.8042" lon="6.30791">
        <ele>993</ele>
        <time>2012-06-04T13:10:56Z</time>
      </trkpt>
      <trkpt lat="46.80393" lon="6.30759">
        <ele>992</ele>
        <time>2012-06-04T13:11:28Z</time>
      </trkpt>
      <trkpt lat="46.80373" lon="6.30733">
        <ele>991</ele>
        <time>2012-06-04T13:11:49Z</time>
      </trkpt>
      <trkpt lat="46.80373" lon="6.30731">
        <ele>991</ele>
        <time>2012-06-04T13:11:50Z</time>
      </trkpt>
      <trkpt lat="46.80368" lon="6.30684">
        <ele>989</ele>
        <time>2012-06-04T13:12:18Z</time>
      </trkpt>
      <trkpt lat="46.80363" lon="6.30647">
        <ele>986</ele>
        <time>2012-06-04T13:12:42Z</time>
      </trkpt>
      <trkpt lat="46.8036" lon="6.30642">
        <ele>985</ele>
        <time>2012-06-04T13:12:46Z</time>
      </trkpt>
      <trkpt lat="46.80332" lon="6.30619">
        <ele>985</ele>
        <time>2012-06-04T13:13:13Z</time>
      </trkpt>
      <trkpt lat="46.80303" lon="6.30599">
        <ele>984</ele>
        <time>2012-06-04T13:13:36Z</time>
      </trkpt>
      <trkpt lat="46.8027" lon="6.30578">
        <ele>984</ele>
        <time>2012-06-04T13:14:05Z</time>
      </trkpt>
      <trkpt lat="46.80261" lon="6.30575">
        <ele>983</ele>
        <time>2012-06-04T13:14:16Z</time>
      </trkpt>
      <trkpt lat="46.80241" lon="6.30564">
        <ele>982</ele>
        <time>2012-06-04T13:14:36Z</time>
      </trkpt>
      <trkpt lat="46.80237" lon="6.30565">
        <ele>982</ele>
        <time>2012-06-04T13:14:40Z</time>
      </trkpt>
      <trkpt lat="46.80233" lon="6.30565">
        <ele>982</ele>
        <time>2012-06-04T13:14:43Z</time>
      </trkpt>
      <trkpt lat="46.80219" lon="6.30567">
        <ele>985</ele>
        <time>2012-06-04T13:14:58Z</time>
      </trkpt>
      <trkpt lat="46.80198" lon="6.30567">
        <ele>988</ele>
        <time>2012-06-04T13:15:14Z</time>
      </trkpt>
      <trkpt lat="46.8019" lon="6.30569">
        <ele>989</ele>
        <time>2012-06-04T13:15:20Z</time>
      </trkpt>
      <trkpt lat="46.80167" lon="6.30565">
        <ele>992</ele>
        <time>2012-06-04T13:15:40Z</time>
      </trkpt>
      <trkpt lat="46.80146" lon="6.30573">
        <ele>995</ele>
        <time>2012-06-04T13:15:59Z</time>
      </trkpt>
      <trkpt lat="46.80127" lon="6.3058">
        <ele>998</ele>
        <time>2012-06-04T13:16:17Z</time>
      </trkpt>
      <trkpt lat="46.80115" lon="6.30588">
        <ele>1000</ele>
        <time>2012-06-04T13:16:31Z</time>
      </trkpt>
      <trkpt lat="46.80099" lon="6.30584">
        <ele>1002</ele>
        <time>2012-06-04T13:16:48Z</time>
      </trkpt>
      <trkpt lat="46.80086" lon="6.30579">
        <ele>1004</ele>
        <time>2012-06-04T13:17:02Z</time>
      </trkpt>
      <trkpt lat="46.80066" lon="6.30574">
        <ele>1006</ele>
        <time>2012-06-04T13:17:20Z</time>
      </trkpt>
      <trkpt lat="46.80052" lon="6.30569">
        <ele>1007</ele>
        <time>2012-06-04T13:17:32Z</time>
      </trkpt>
      <trkpt lat="46.80048" lon="6.30568">
        <ele>1007</ele>
        <time>2012-06-04T13:17:35Z</time>
      </trkpt>
      <trkpt lat="46.80031" lon="6.30552">
        <ele>1008</ele>
        <time>2012-06-04T13:17:53Z</time>
      </trkpt>
      <trkpt lat="46.80007" lon="6.30534">
        <ele>1010</ele>
        <time>2012-06-04T13:18:10Z</time>
      </trkpt>
      <trkpt lat="46.79992" lon="6.30517">
        <ele>1010</ele>
        <time>2012-06-04T13:18:21Z</time>
      </trkpt>
      <trkpt lat="46.7998" lon="6.30503">
        <ele>1010</ele>
        <time>2012-06-04T13:18:33Z</time>
      </trkpt>
      <trkpt lat="46.7997" lon="6.30484">
        <ele>1010</ele>
        <time>2012-06-04T13:18:48Z</time>
      </trkpt>
      <trkpt lat="46.79962" lon="6.30487">
        <ele>1010</ele>
        <time>2012-06-04T13:18:56Z</time>
      </trkpt>
      <trkpt lat="46.79956" lon="6.30489">
        <ele>1010</ele>
        <time>2012-06-04T13:19:01Z</time>
      </trkpt>
      <trkpt lat="46.79952" lon="6.30489">
        <ele>1010</ele>
        <time>2012-06-04T13:19:04Z</time>
      </trkpt>
      <trkpt lat="46.79941" lon="6.30481">
        <ele>1010</ele>
        <time>2012-06-04T13:19:17Z</time>
      </trkpt>
      <trkpt lat="46.79933" lon="6.3047">
        <ele>1010</ele>
        <time>2012-06-04T13:19:30Z</time>
      </trkpt>
      <trkpt lat="46.79923" lon="6.30464">
        <ele>1009</ele>
        <time>2012-06-04T13:19:43Z</time>
      </trkpt>
      <trkpt lat="46.7993" lon="6.30469">
        <ele>1008</ele>
        <time>2012-06-04T13:19:57Z</time>
      </trkpt>
      <trkpt lat="46.79931" lon="6.30473">
        <ele>1008</ele>
        <time>2012-06-04T13:19:59Z</time>
      </trkpt>
      <trkpt lat="46.79926" lon="6.30495">
        <ele>1008</ele>
        <time>2012-06-04T13:20:15Z</time>
      </trkpt>
      <trkpt lat="46.79922" lon="6.30496">
        <ele>1007</ele>
        <time>2012-06-04T13:20:36Z</time>
      </trkpt>
      <trkpt lat="46.79922" lon="6.30497">
        <ele>1007</ele>
        <time>2012-06-04T13:20:41Z</time>
      </trkpt>
      <trkpt lat="46.79922" lon="6.30507">
        <ele>1007</ele>
        <time>2012-06-04T13:20:49Z</time>
      </trkpt>
      <trkpt lat="46.79908" lon="6.3053">
        <ele>1006</ele>
        <time>2012-06-04T13:21:05Z</time>
      </trkpt>
      <trkpt lat="46.79889" lon="6.30557">
        <ele>1005</ele>
        <time>2012-06-04T13:21:23Z</time>
      </trkpt>
      <trkpt lat="46.79875" lon="6.30571">
        <ele>1005</ele>
        <time>2012-06-04T13:21:36Z</time>
      </trkpt>
      <trkpt lat="46.79871" lon="6.30581">
        <ele>1005</ele>
        <time>2012-06-04T13:21:50Z</time>
      </trkpt>
      <trkpt lat="46.79872" lon="6.30583">
        <ele>1002</ele>
        <time>2012-06-04T13:22:50Z</time>
      </trkpt>
      <trkpt lat="46.79874" lon="6.30582">
        <ele>1001</ele>
        <time>2012-06-04T13:23:55Z</time>
      </trkpt>
      <trkpt lat="46.79873" lon="6.30582">
        <ele>1000</ele>
        <time>2012-06-04T13:24:16Z</time>
      </trkpt>
      <trkpt lat="46.79878" lon="6.3058">
        <ele>998</ele>
        <time>2012-06-04T13:24:50Z</time>
      </trkpt>
      <trkpt lat="46.79881" lon="6.30578">
        <ele>998</ele>
        <time>2012-06-04T13:24:52Z</time>
      </trkpt>
      <trkpt lat="46.79892" lon="6.30581">
        <ele>997</ele>
        <time>2012-06-04T13:25:06Z</time>
      </trkpt>
      <trkpt lat="46.79874" lon="6.30576">
        <ele>996</ele>
        <time>2012-06-04T13:26:14Z</time>
      </trkpt>
      <trkpt lat="46.79864" lon="6.30579">
        <ele>996</ele>
        <time>2012-06-04T13:26:23Z</time>
      </trkpt>
      <trkpt lat="46.79852" lon="6.30589">
        <ele>996</ele>
        <time>2012-06-04T13:26:35Z</time>
      </trkpt>
      <trkpt lat="46.7983" lon="6.30598">
        <ele>997</ele>
        <time>2012-06-04T13:26:51Z</time>
      </trkpt>
      <trkpt lat="46.79822" lon="6.30603">
        <ele>998</ele>
        <time>2012-06-04T13:26:59Z</time>
      </trkpt>
      <trkpt lat="46.79811" lon="6.30617">
        <ele>999</ele>
        <time>2012-06-04T13:27:14Z</time>
      </trkpt>
      <trkpt lat="46.79803" lon="6.30631">
        <ele>1000</ele>
        <time>2012-06-04T13:27:27Z</time>
      </trkpt>
      <trkpt lat="46.79784" lon="6.30647">
        <ele>1002</ele>
        <time>2012-06-04T13:27:45Z</time>
      </trkpt>
      <trkpt lat="46.7978" lon="6.3065">
        <ele>1003</ele>
        <time>2012-06-04T13:27:49Z</time>
      </trkpt>
      <trkpt lat="46.79776" lon="6.30649">
        <ele>1003</ele>
        <time>2012-06-04T13:27:58Z</time>
      </trkpt>
      <trkpt lat="46.79773" lon="6.30645">
        <ele>1003</ele>
        <time>2012-06-04T13:28:02Z</time>
      </trkpt>
      <trkpt lat="46.79762" lon="6.30639">
        <ele>1004</ele>
        <time>2012-06-04T13:28:09Z</time>
      </trkpt>
      <trkpt lat="46.79759" lon="6.30639">
        <ele>1004</ele>
        <time>2012-06-04T13:28:11Z</time>
      </trkpt>
      <trkpt lat="46.79751" lon="6.30624">
        <ele>1003</ele>
        <time>2012-06-04T13:28:23Z</time>
      </trkpt>
      <trkpt lat="46.79749" lon="6.30622">
        <ele>1003</ele>
        <time>2012-06-04T13:28:24Z</time>
      </trkpt>
      <trkpt lat="46.79732" lon="6.30598">
        <ele>1002</ele>
        <time>2012-06-04T13:28:46Z</time>
      </trkpt>
      <trkpt lat="46.79725" lon="6.30579">
        <ele>1001</ele>
        <time>2012-06-04T13:29:02Z</time>
      </trkpt>
      <trkpt lat="46.7972" lon="6.30578">
        <ele>1000</ele>
        <time>2012-06-04T13:29:35Z</time>
      </trkpt>
      <trkpt lat="46.79714" lon="6.30574">
        <ele>998</ele>
        <time>2012-06-04T13:30:04Z</time>
      </trkpt>
      <trkpt lat="46.79708" lon="6.30577">
        <ele>999</ele>
        <time>2012-06-04T13:30:20Z</time>
      </trkpt>
      <trkpt lat="46.79705" lon="6.30594">
        <ele>1001</ele>
        <time>2012-06-04T13:30:33Z</time>
      </trkpt>
      <trkpt lat="46.79706" lon="6.30601">
        <ele>1001</ele>
        <time>2012-06-04T13:30:38Z</time>
      </trkpt>
      <trkpt lat="46.79708" lon="6.30621">
        <ele>1002</ele>
        <time>2012-06-04T13:30:53Z</time>
      </trkpt>
      <trkpt lat="46.79715" lon="6.30635">
        <ele>1003</ele>
        <time>2012-06-04T13:31:03Z</time>
      </trkpt>
      <trkpt lat="46.79725" lon="6.30652">
        <ele>1005</ele>
        <time>2012-06-04T13:31:20Z</time>
      </trkpt>
      <trkpt lat="46.79724" lon="6.30655">
        <ele>1004</ele>
        <time>2012-06-04T13:31:40Z</time>
      </trkpt>
      <trkpt lat="46.79727" lon="6.30672">
        <ele>1006</ele>
        <time>2012-06-04T13:32:07Z</time>
      </trkpt>
      <trkpt lat="46.79732" lon="6.30694">
        <ele>1007</ele>
        <time>2012-06-04T13:32:25Z</time>
      </trkpt>
      <trkpt lat="46.79743" lon="6.30719">
        <ele>1009</ele>
        <time>2012-06-04T13:32:47Z</time>
      </trkpt>
      <trkpt lat="46.79751" lon="6.30739">
        <ele>1010</ele>
        <time>2012-06-04T13:33:15Z</time>
      </trkpt>
      <trkpt lat="46.79758" lon="6.30757">
        <ele>1011</ele>
        <time>2012-06-04T13:33:38Z</time>
      </trkpt>
      <trkpt lat="46.79762" lon="6.30787">
        <ele>1015</ele>
        <time>2012-06-04T13:34:11Z</time>
      </trkpt>
      <trkpt lat="46.7977" lon="6.30816">
        <ele>1018</ele>
        <time>2012-06-04T13:34:43Z</time>
      </trkpt>
      <trkpt lat="46.7979" lon="6.30853">
        <ele>1020</ele>
        <time>2012-06-04T13:35:20Z</time>
      </trkpt>
      <trkpt lat="46.79801" lon="6.30867">
        <ele>1022</ele>
        <time>2012-06-04T13:35:42Z</time>
      </trkpt>
      <trkpt lat="46.79809" lon="6.30891">
        <ele>1023</ele>
        <time>2012-06-04T13:36:02Z</time>
      </trkpt>
      <trkpt lat="46.79818" lon="6.30916">
        <ele>1025</ele>
        <time>2012-06-04T13:36:20Z</time>
      </trkpt>
      <trkpt lat="46.79829" lon="6.30935">
        <ele>1026</ele>
        <time>2012-06-04T13:36:45Z</time>
      </trkpt>
      <trkpt lat="46.79842" lon="6.30964">
        <ele>1029</ele>
        <time>2012-06-04T13:37:16Z</time>
      </trkpt>
      <trkpt lat="46.79845" lon="6.30983">
        <ele>1030</ele>
        <time>2012-06-04T13:37:40Z</time>
      </trkpt>
      <trkpt lat="46.79866" lon="6.30991">
        <ele>1031</ele>
        <time>2012-06-04T13:38:01Z</time>
      </trkpt>
      <trkpt lat="46.79874" lon="6.31003">
        <ele>1031</ele>
        <time>2012-06-04T13:38:07Z</time>
      </trkpt>
      <trkpt lat="46.7989" lon="6.31013">
        <ele>1033</ele>
        <time>2012-06-04T13:38:22Z</time>
      </trkpt>
      <trkpt lat="46.7989" lon="6.31015">
        <ele>1033</ele>
        <time>2012-06-04T13:38:24Z</time>
      </trkpt>
      <trkpt lat="46.79892" lon="6.31029">
        <ele>1034</ele>
        <time>2012-06-04T13:38:39Z</time>
      </trkpt>
      <trkpt lat="46.79892" lon="6.31032">
        <ele>1034</ele>
        <time>2012-06-04T13:38:41Z</time>
      </trkpt>
      <trkpt lat="46.79892" lon="6.31036">
        <ele>1034</ele>
        <time>2012-06-04T13:38:48Z</time>
      </trkpt>
      <trkpt lat="46.79893" lon="6.31043">
        <ele>1035</ele>
        <time>2012-06-04T13:38:55Z</time>
      </trkpt>
      <trkpt lat="46.7989" lon="6.31058">
        <ele>1036</ele>
        <time>2012-06-04T13:39:10Z</time>
      </trkpt>
      <trkpt lat="46.79896" lon="6.31065">
        <ele>1036</ele>
        <time>2012-06-04T13:39:16Z</time>
      </trkpt>
      <trkpt lat="46.79901" lon="6.31081">
        <ele>1038</ele>
        <time>2012-06-04T13:39:40Z</time>
      </trkpt>
      <trkpt lat="46.79913" lon="6.31103">
        <ele>1039</ele>
        <time>2012-06-04T13:40:00Z</time>
      </trkpt>
      <trkpt lat="46.79921" lon="6.31122">
        <ele>1041</ele>
        <time>2012-06-04T13:40:19Z</time>
      </trkpt>
      <trkpt lat="46.79918" lon="6.31136">
        <ele>1042</ele>
        <time>2012-06-04T13:40:33Z</time>
      </trkpt>
      <trkpt lat="46.79926" lon="6.31154">
        <ele>1044</ele>
        <time>2012-06-04T13:40:53Z</time>
      </trkpt>
      <trkpt lat="46.79925" lon="6.31177">
        <ele>1046</ele>
        <time>2012-06-04T13:41:12Z</time>
      </trkpt>
      <trkpt lat="46.79923" lon="6.31197">
        <ele>1047</ele>
        <time>2012-06-04T13:41:39Z</time>
      </trkpt>
      <trkpt lat="46.79922" lon="6.31198">
        <ele>1047</ele>
        <time>2012-06-04T13:42:08Z</time>
      </trkpt>
      <trkpt lat="46.7993" lon="6.31213">
        <ele>1047</ele>
        <time>2012-06-04T13:43:05Z</time>
      </trkpt>
      <trkpt lat="46.79936" lon="6.31222">
        <ele>1047</ele>
        <time>2012-06-04T13:43:14Z</time>
      </trkpt>
      <trkpt lat="46.7994" lon="6.31235">
        <ele>1048</ele>
        <time>2012-06-04T13:43:25Z</time>
      </trkpt>
      <trkpt lat="46.79943" lon="6.31275">
        <ele>1050</ele>
        <time>2012-06-04T13:43:50Z</time>
      </trkpt>
      <trkpt lat="46.79947" lon="6.313">
        <ele>1051</ele>
        <time>2012-06-04T13:44:09Z</time>
      </trkpt>
      <trkpt lat="46.79952" lon="6.31322">
        <ele>1053</ele>
        <time>2012-06-04T13:44:25Z</time>
      </trkpt>
      <trkpt lat="46.7995" lon="6.31344">
        <ele>1053</ele>
        <time>2012-06-04T13:44:43Z</time>
      </trkpt>
      <trkpt lat="46.79954" lon="6.31364">
        <ele>1053</ele>
        <time>2012-06-04T13:44:57Z</time>
      </trkpt>
      <trkpt lat="46.79954" lon="6.31367">
        <ele>1053</ele>
        <time>2012-06-04T13:44:58Z</time>
      </trkpt>
      <trkpt lat="46.79951" lon="6.31392">
        <ele>1053</ele>
        <time>2012-06-04T13:45:13Z</time>
      </trkpt>
      <trkpt lat="46.7995" lon="6.31398">
        <ele>1053</ele>
        <time>2012-06-04T13:45:16Z</time>
      </trkpt>
      <trkpt lat="46.79948" lon="6.31401">
        <ele>1053</ele>
        <time>2012-06-04T13:45:19Z</time>
      </trkpt>
      <trkpt lat="46.79946" lon="6.31406">
        <ele>1053</ele>
        <time>2012-06-04T13:45:22Z</time>
      </trkpt>
      <trkpt lat="46.7994" lon="6.31416">
        <ele>1055</ele>
        <time>2012-06-04T13:45:29Z</time>
      </trkpt>
      <trkpt lat="46.79935" lon="6.31423">
        <ele>1055</ele>
        <time>2012-06-04T13:45:35Z</time>
      </trkpt>
      <trkpt lat="46.79933" lon="6.31425">
        <ele>1055</ele>
        <time>2012-06-04T13:45:37Z</time>
      </trkpt>
      <trkpt lat="46.7993" lon="6.31428">
        <ele>1055</ele>
        <time>2012-06-04T13:45:41Z</time>
      </trkpt>
      <trkpt lat="46.79925" lon="6.31435">
        <ele>1055</ele>
        <time>2012-06-04T13:45:48Z</time>
      </trkpt>
      <trkpt lat="46.79913" lon="6.3145">
        <ele>1055</ele>
        <time>2012-06-04T13:46:02Z</time>
      </trkpt>
      <trkpt lat="46.79904" lon="6.31474">
        <ele>1056</ele>
        <time>2012-06-04T13:46:19Z</time>
      </trkpt>
      <trkpt lat="46.79904" lon="6.31476">
        <ele>1056</ele>
        <time>2012-06-04T13:46:20Z</time>
      </trkpt>
      <trkpt lat="46.79901" lon="6.31509">
        <ele>1056</ele>
        <time>2012-06-04T13:46:40Z</time>
      </trkpt>
      <trkpt lat="46.79901" lon="6.3152">
        <ele>1057</ele>
        <time>2012-06-04T13:46:48Z</time>
      </trkpt>
      <trkpt lat="46.79898" lon="6.31536">
        <ele>1056</ele>
        <time>2012-06-04T13:46:58Z</time>
      </trkpt>
      <trkpt lat="46.79899" lon="6.31546">
        <ele>1056</ele>
        <time>2012-06-04T13:47:01Z</time>
      </trkpt>
      <trkpt lat="46.79891" lon="6.31576">
        <ele>1057</ele>
        <time>2012-06-04T13:47:21Z</time>
      </trkpt>
      <trkpt lat="46.79887" lon="6.31584">
        <ele>1057</ele>
        <time>2012-06-04T13:47:32Z</time>
      </trkpt>
      <trkpt lat="46.79888" lon="6.31595">
        <ele>1058</ele>
        <time>2012-06-04T13:47:39Z</time>
      </trkpt>
      <trkpt lat="46.79884" lon="6.31605">
        <ele>1058</ele>
        <time>2012-06-04T13:47:47Z</time>
      </trkpt>
      <trkpt lat="46.79878" lon="6.31619">
        <ele>1058</ele>
        <time>2012-06-04T13:47:57Z</time>
      </trkpt>
      <trkpt lat="46.79876" lon="6.31625">
        <ele>1059</ele>
        <time>2012-06-04T13:48:01Z</time>
      </trkpt>
      <trkpt lat="46.79873" lon="6.31637">
        <ele>1059</ele>
        <time>2012-06-04T13:48:09Z</time>
      </trkpt>
      <trkpt lat="46.79872" lon="6.3164">
        <ele>1059</ele>
        <time>2012-06-04T13:48:11Z</time>
      </trkpt>
      <trkpt lat="46.79869" lon="6.31646">
        <ele>1059</ele>
        <time>2012-06-04T13:48:16Z</time>
      </trkpt>
      <trkpt lat="46.79868" lon="6.31651">
        <ele>1060</ele>
        <time>2012-06-04T13:48:19Z</time>
      </trkpt>
      <trkpt lat="46.7986" lon="6.3166">
        <ele>1059</ele>
        <time>2012-06-04T13:48:27Z</time>
      </trkpt>
      <trkpt lat="46.79846" lon="6.31675">
        <ele>1060</ele>
        <time>2012-06-04T13:48:41Z</time>
      </trkpt>
      <trkpt lat="46.79845" lon="6.31678">
        <ele>1060</ele>
        <time>2012-06-04T13:48:43Z</time>
      </trkpt>
      <trkpt lat="46.79842" lon="6.31689">
        <ele>1060</ele>
        <time>2012-06-04T13:48:51Z</time>
      </trkpt>
      <trkpt lat="46.7984" lon="6.31692">
        <ele>1060</ele>
        <time>2012-06-04T13:48:53Z</time>
      </trkpt>
      <trkpt lat="46.79837" lon="6.31702">
        <ele>1060</ele>
        <time>2012-06-04T13:48:59Z</time>
      </trkpt>
      <trkpt lat="46.79839" lon="6.31716">
        <ele>1061</ele>
        <time>2012-06-04T13:49:13Z</time>
      </trkpt>
      <trkpt lat="46.79836" lon="6.31712">
        <ele>1060</ele>
        <time>2012-06-04T13:49:47Z</time>
      </trkpt>
      <trkpt lat="46.79838" lon="6.31731">
        <ele>1059</ele>
        <time>2012-06-04T13:50:25Z</time>
      </trkpt>
      <trkpt lat="46.79841" lon="6.31767">
        <ele>1058</ele>
        <time>2012-06-04T13:50:44Z</time>
      </trkpt>
      <trkpt lat="46.79838" lon="6.31777">
        <ele>1057</ele>
        <time>2012-06-04T13:51:07Z</time>
      </trkpt>
      <trkpt lat="46.79834" lon="6.31773">
        <ele>1055</ele>
        <time>2012-06-04T13:52:40Z</time>
      </trkpt>
      <trkpt lat="46.79848" lon="6.31773">
        <ele>1055</ele>
        <time>2012-06-04T13:53:26Z</time>
      </trkpt>
      <trkpt lat="46.79855" lon="6.31787">
        <ele>1055</ele>
        <time>2012-06-04T13:53:40Z</time>
      </trkpt>
      <trkpt lat="46.79869" lon="6.31816">
        <ele>1055</ele>
        <time>2012-06-04T13:54:04Z</time>
      </trkpt>
      <trkpt lat="46.79888" lon="6.31848">
        <ele>1055</ele>
        <time>2012-06-04T13:54:26Z</time>
      </trkpt>
      <trkpt lat="46.79888" lon="6.31868">
        <ele>1056</ele>
        <time>2012-06-04T13:54:37Z</time>
      </trkpt>
      <trkpt lat="46.79888" lon="6.31899">
        <ele>1057</ele>
        <time>2012-06-04T13:54:53Z</time>
      </trkpt>
      <trkpt lat="46.79883" lon="6.31916">
        <ele>1057</ele>
        <time>2012-06-04T13:55:05Z</time>
      </trkpt>
      <trkpt lat="46.79877" lon="6.31938">
        <ele>1057</ele>
        <time>2012-06-04T13:55:17Z</time>
      </trkpt>
      <trkpt lat="46.79877" lon="6.31941">
        <ele>1057</ele>
        <time>2012-06-04T13:55:19Z</time>
      </trkpt>
      <trkpt lat="46.79865" lon="6.31971">
        <ele>1057</ele>
        <time>2012-06-04T13:55:39Z</time>
      </trkpt>
      <trkpt lat="46.79859" lon="6.32006">
        <ele>1058</ele>
        <time>2012-06-04T13:55:59Z</time>
      </trkpt>
      <trkpt lat="46.79852" lon="6.32044">
        <ele>1060</ele>
        <time>2012-06-04T13:56:20Z</time>
      </trkpt>
      <trkpt lat="46.79845" lon="6.32065">
        <ele>1061</ele>
        <time>2012-06-04T13:56:37Z</time>
      </trkpt>
      <trkpt lat="46.79836" lon="6.32083">
        <ele>1060</ele>
        <time>2012-06-04T13:56:51Z</time>
      </trkpt>
      <trkpt lat="46.79827" lon="6.32099">
        <ele>1061</ele>
        <time>2012-06-04T13:57:04Z</time>
      </trkpt>
      <trkpt lat="46.79819" lon="6.3211">
        <ele>1060</ele>
        <time>2012-06-04T13:57:11Z</time>
      </trkpt>
      <trkpt lat="46.79809" lon="6.32133">
        <ele>1060</ele>
        <time>2012-06-04T13:57:29Z</time>
      </trkpt>
      <trkpt lat="46.79803" lon="6.32141">
        <ele>1060</ele>
        <time>2012-06-04T13:57:36Z</time>
      </trkpt>
      <trkpt lat="46.79796" lon="6.32152">
        <ele>1060</ele>
        <time>2012-06-04T13:57:43Z</time>
      </trkpt>
      <trkpt lat="46.79791" lon="6.32159">
        <ele>1060</ele>
        <time>2012-06-04T13:57:48Z</time>
      </trkpt>
      <trkpt lat="46.79773" lon="6.32185">
        <ele>1060</ele>
        <time>2012-06-04T13:58:06Z</time>
      </trkpt>
      <trkpt lat="46.79772" lon="6.32198">
        <ele>1060</ele>
        <time>2012-06-04T13:58:19Z</time>
      </trkpt>
      <trkpt lat="46.79775" lon="6.32223">
        <ele>1062</ele>
        <time>2012-06-04T13:58:41Z</time>
      </trkpt>
      <trkpt lat="46.79783" lon="6.32247">
        <ele>1063</ele>
        <time>2012-06-04T13:59:05Z</time>
      </trkpt>
      <trkpt lat="46.79787" lon="6.32263">
        <ele>1064</ele>
        <time>2012-06-04T13:59:19Z</time>
      </trkpt>
      <trkpt lat="46.79791" lon="6.32285">
        <ele>1064</ele>
        <time>2012-06-04T13:59:37Z</time>
      </trkpt>
      <trkpt lat="46.79795" lon="6.32301">
        <ele>1065</ele>
        <time>2012-06-04T13:59:53Z</time>
      </trkpt>
      <trkpt lat="46.79783" lon="6.32325">
        <ele>1066</ele>
        <time>2012-06-04T14:00:15Z</time>
      </trkpt>
      <trkpt lat="46.79774" lon="6.32334">
        <ele>1066</ele>
        <time>2012-06-04T14:00:30Z</time>
      </trkpt>
      <trkpt lat="46.79758" lon="6.32331">
        <ele>1067</ele>
        <time>2012-06-04T14:00:51Z</time>
      </trkpt>
      <trkpt lat="46.79732" lon="6.32323">
        <ele>1067</ele>
        <time>2012-06-04T14:01:10Z</time>
      </trkpt>
      <trkpt lat="46.79723" lon="6.3232">
        <ele>1064</ele>
        <time>2012-06-04T14:02:03Z</time>
      </trkpt>
      <trkpt lat="46.79722" lon="6.32327">
        <ele>1061</ele>
        <time>2012-06-04T14:02:47Z</time>
      </trkpt>
      <trkpt lat="46.79723" lon="6.32331">
        <ele>1059</ele>
        <time>2012-06-04T14:03:52Z</time>
      </trkpt>
      <trkpt lat="46.79721" lon="6.32345">
        <ele>1059</ele>
        <time>2012-06-04T14:04:02Z</time>
      </trkpt>
      <trkpt lat="46.79708" lon="6.3236">
        <ele>1060</ele>
        <time>2012-06-04T14:04:19Z</time>
      </trkpt>
      <trkpt lat="46.79682" lon="6.32381">
        <ele>1062</ele>
        <time>2012-06-04T14:04:41Z</time>
      </trkpt>
      <trkpt lat="46.79658" lon="6.32393">
        <ele>1062</ele>
        <time>2012-06-04T14:04:59Z</time>
      </trkpt>
      <trkpt lat="46.79637" lon="6.32393">
        <ele>1062</ele>
        <time>2012-06-04T14:05:19Z</time>
      </trkpt>
      <trkpt lat="46.79616" lon="6.32401">
        <ele>1065</ele>
        <time>2012-06-04T14:05:44Z</time>
      </trkpt>
      <trkpt lat="46.79593" lon="6.32412">
        <ele>1064</ele>
        <time>2012-06-04T14:06:07Z</time>
      </trkpt>
      <trkpt lat="46.79568" lon="6.32423">
        <ele>1062</ele>
        <time>2012-06-04T14:06:29Z</time>
      </trkpt>
      <trkpt lat="46.79557" lon="6.32435">
        <ele>1060</ele>
        <time>2012-06-04T14:06:45Z</time>
      </trkpt>
      <trkpt lat="46.79551" lon="6.32454">
        <ele>1059</ele>
        <time>2012-06-04T14:07:02Z</time>
      </trkpt>
      <trkpt lat="46.79543" lon="6.32467">
        <ele>1060</ele>
        <time>2012-06-04T14:07:07Z</time>
      </trkpt>
      <trkpt lat="46.79537" lon="6.32475">
        <ele>1059</ele>
        <time>2012-06-04T14:07:12Z</time>
      </trkpt>
      <trkpt lat="46.79523" lon="6.32508">
        <ele>1057</ele>
        <time>2012-06-04T14:07:31Z</time>
      </trkpt>
      <trkpt lat="46.79514" lon="6.32537">
        <ele>1057</ele>
        <time>2012-06-04T14:07:45Z</time>
      </trkpt>
      <trkpt lat="46.7951" lon="6.32555">
        <ele>1057</ele>
        <time>2012-06-04T14:07:56Z</time>
      </trkpt>
      <trkpt lat="46.79508" lon="6.32569">
        <ele>1058</ele>
        <time>2012-06-04T14:08:06Z</time>
      </trkpt>
      <trkpt lat="46.79507" lon="6.32579">
        <ele>1059</ele>
        <time>2012-06-04T14:08:13Z</time>
      </trkpt>
      <trkpt lat="46.79503" lon="6.32586">
        <ele>1059</ele>
        <time>2012-06-04T14:08:16Z</time>
      </trkpt>
      <trkpt lat="46.79498" lon="6.32598">
        <ele>1059</ele>
        <time>2012-06-04T14:08:24Z</time>
      </trkpt>
      <trkpt lat="46.79497" lon="6.32611">
        <ele>1059</ele>
        <time>2012-06-04T14:08:32Z</time>
      </trkpt>
      <trkpt lat="46.79483" lon="6.3264">
        <ele>1060</ele>
        <time>2012-06-04T14:08:48Z</time>
      </trkpt>
      <trkpt lat="46.7947" lon="6.3268">
        <ele>1060</ele>
        <time>2012-06-04T14:09:04Z</time>
      </trkpt>
      <trkpt lat="46.79462" lon="6.32716">
        <ele>1060</ele>
        <time>2012-06-04T14:09:19Z</time>
      </trkpt>
      <trkpt lat="46.79449" lon="6.32756">
        <ele>1060</ele>
        <time>2012-06-04T14:09:40Z</time>
      </trkpt>
      <trkpt lat="46.79446" lon="6.32765">
        <ele>1060</ele>
        <time>2012-06-04T14:09:57Z</time>
      </trkpt>
      <trkpt lat="46.79447" lon="6.3277">
        <ele>1060</ele>
        <time>2012-06-04T14:10:00Z</time>
      </trkpt>
      <trkpt lat="46.79448" lon="6.32777">
        <ele>1060</ele>
        <time>2012-06-04T14:10:04Z</time>
      </trkpt>
      <trkpt lat="46.79445" lon="6.32796">
        <ele>1060</ele>
        <time>2012-06-04T14:10:14Z</time>
      </trkpt>
      <trkpt lat="46.79444" lon="6.32806">
        <ele>1060</ele>
        <time>2012-06-04T14:10:19Z</time>
      </trkpt>
      <trkpt lat="46.79442" lon="6.32824">
        <ele>1060</ele>
        <time>2012-06-04T14:10:30Z</time>
      </trkpt>
      <trkpt lat="46.79442" lon="6.32828">
        <ele>1060</ele>
        <time>2012-06-04T14:10:32Z</time>
      </trkpt>
      <trkpt lat="46.7944" lon="6.32833">
        <ele>1060</ele>
        <time>2012-06-04T14:10:37Z</time>
      </trkpt>
      <trkpt lat="46.79433" lon="6.32857">
        <ele>1059</ele>
        <time>2012-06-04T14:10:52Z</time>
      </trkpt>
      <trkpt lat="46.79431" lon="6.3287">
        <ele>1058</ele>
        <time>2012-06-04T14:11:07Z</time>
      </trkpt>
      <trkpt lat="46.79429" lon="6.32877">
        <ele>1057</ele>
        <time>2012-06-04T14:11:12Z</time>
      </trkpt>
      <trkpt lat="46.79431" lon="6.3289">
        <ele>1058</ele>
        <time>2012-06-04T14:11:21Z</time>
      </trkpt>
      <trkpt lat="46.79433" lon="6.32909">
        <ele>1058</ele>
        <time>2012-06-04T14:11:31Z</time>
      </trkpt>
      <trkpt lat="46.79433" lon="6.32918">
        <ele>1059</ele>
        <time>2012-06-04T14:11:36Z</time>
      </trkpt>
      <trkpt lat="46.79432" lon="6.32923">
        <ele>1059</ele>
        <time>2012-06-04T14:11:40Z</time>
      </trkpt>
      <trkpt lat="46.79429" lon="6.32931">
        <ele>1060</ele>
        <time>2012-06-04T14:11:45Z</time>
      </trkpt>
      <trkpt lat="46.79432" lon="6.32954">
        <ele>1061</ele>
        <time>2012-06-04T14:11:59Z</time>
      </trkpt>
      <trkpt lat="46.79433" lon="6.32978">
        <ele>1063</ele>
        <time>2012-06-04T14:12:13Z</time>
      </trkpt>
      <trkpt lat="46.79434" lon="6.32996">
        <ele>1064</ele>
        <time>2012-06-04T14:12:25Z</time>
      </trkpt>
      <trkpt lat="46.79433" lon="6.33016">
        <ele>1066</ele>
        <time>2012-06-04T14:12:38Z</time>
      </trkpt>
      <trkpt lat="46.79436" lon="6.33033">
        <ele>1066</ele>
        <time>2012-06-04T14:12:49Z</time>
      </trkpt>
      <trkpt lat="46.79439" lon="6.33081">
        <ele>1068</ele>
        <time>2012-06-04T14:13:11Z</time>
      </trkpt>
      <trkpt lat="46.79438" lon="6.3312">
        <ele>1070</ele>
        <time>2012-06-04T14:13:33Z</time>
      </trkpt>
      <trkpt lat="46.79437" lon="6.33126">
        <ele>1071</ele>
        <time>2012-06-04T14:13:37Z</time>
      </trkpt>
      <trkpt lat="46.79434" lon="6.33146">
        <ele>1073</ele>
        <time>2012-06-04T14:13:54Z</time>
      </trkpt>
      <trkpt lat="46.79437" lon="6.33163">
        <ele>1075</ele>
        <time>2012-06-04T14:14:06Z</time>
      </trkpt>
      <trkpt lat="46.7944" lon="6.33189">
        <ele>1078</ele>
        <time>2012-06-04T14:14:23Z</time>
      </trkpt>
      <trkpt lat="46.79445" lon="6.33219">
        <ele>1080</ele>
        <time>2012-06-04T14:14:41Z</time>
      </trkpt>
      <trkpt lat="46.79447" lon="6.33242">
        <ele>1082</ele>
        <time>2012-06-04T14:14:56Z</time>
      </trkpt>
      <trkpt lat="46.79448" lon="6.33247">
        <ele>1083</ele>
        <time>2012-06-04T14:14:58Z</time>
      </trkpt>
      <trkpt lat="46.79449" lon="6.3325">
        <ele>1083</ele>
        <time>2012-06-04T14:15:00Z</time>
      </trkpt>
      <trkpt lat="46.79455" lon="6.33281">
        <ele>1085</ele>
        <time>2012-06-04T14:15:17Z</time>
      </trkpt>
      <trkpt lat="46.7945" lon="6.33297">
        <ele>1086</ele>
        <time>2012-06-04T14:15:35Z</time>
      </trkpt>
      <trkpt lat="46.79446" lon="6.33311">
        <ele>1086</ele>
        <time>2012-06-04T14:15:45Z</time>
      </trkpt>
      <trkpt lat="46.79441" lon="6.33319">
        <ele>1087</ele>
        <time>2012-06-04T14:15:54Z</time>
      </trkpt>
      <trkpt lat="46.79432" lon="6.33333">
        <ele>1088</ele>
        <time>2012-06-04T14:16:12Z</time>
      </trkpt>
      <trkpt lat="46.79424" lon="6.33351">
        <ele>1089</ele>
        <time>2012-06-04T14:16:25Z</time>
      </trkpt>
      <trkpt lat="46.7942" lon="6.33358">
        <ele>1090</ele>
        <time>2012-06-04T14:16:31Z</time>
      </trkpt>
      <trkpt lat="46.79403" lon="6.33372">
        <ele>1090</ele>
        <time>2012-06-04T14:16:48Z</time>
      </trkpt>
      <trkpt lat="46.79398" lon="6.33368">
        <ele>1090</ele>
        <time>2012-06-04T14:17:11Z</time>
      </trkpt>
      <trkpt lat="46.79399" lon="6.3336">
        <ele>1091</ele>
        <time>2012-06-04T14:17:53Z</time>
      </trkpt>
      <trkpt lat="46.79397" lon="6.33361">
        <ele>1092</ele>
        <time>2012-06-04T14:18:40Z</time>
      </trkpt>
      <trkpt lat="46.79397" lon="6.3336">
        <ele>1093</ele>
        <time>2012-06-04T14:20:57Z</time>
      </trkpt>
      <trkpt lat="46.79394" lon="6.33358">
        <ele>1094</ele>
        <time>2012-06-04T14:22:01Z</time>
      </trkpt>
      <trkpt lat="46.79381" lon="6.33359">
        <ele>1095</ele>
        <time>2012-06-04T14:22:23Z</time>
      </trkpt>
      <trkpt lat="46.79374" lon="6.33363">
        <ele>1096</ele>
        <time>2012-06-04T14:22:29Z</time>
      </trkpt>
      <trkpt lat="46.79358" lon="6.33364">
        <ele>1096</ele>
        <time>2012-06-04T14:22:49Z</time>
      </trkpt>
      <trkpt lat="46.79346" lon="6.33356">
        <ele>1095</ele>
        <time>2012-06-04T14:23:13Z</time>
      </trkpt>
      <trkpt lat="46.79333" lon="6.33342">
        <ele>1096</ele>
        <time>2012-06-04T14:23:28Z</time>
      </trkpt>
      <trkpt lat="46.79306" lon="6.33331">
        <ele>1097</ele>
        <time>2012-06-04T14:23:51Z</time>
      </trkpt>
      <trkpt lat="46.79293" lon="6.33328">
        <ele>1097</ele>
        <time>2012-06-04T14:24:08Z</time>
      </trkpt>
      <trkpt lat="46.79287" lon="6.33323">
        <ele>1097</ele>
        <time>2012-06-04T14:24:15Z</time>
      </trkpt>
      <trkpt lat="46.7928" lon="6.33321">
        <ele>1096</ele>
        <time>2012-06-04T14:24:22Z</time>
      </trkpt>
      <trkpt lat="46.79262" lon="6.33323">
        <ele>1095</ele>
        <time>2012-06-04T14:24:38Z</time>
      </trkpt>
      <trkpt lat="46.7924" lon="6.33321">
        <ele>1094</ele>
        <time>2012-06-04T14:24:59Z</time>
      </trkpt>
      <trkpt lat="46.79218" lon="6.33322">
        <ele>1094</ele>
        <time>2012-06-04T14:25:19Z</time>
      </trkpt>
      <trkpt lat="46.79214" lon="6.33322">
        <ele>1094</ele>
        <time>2012-06-04T14:25:24Z</time>
      </trkpt>
      <trkpt lat="46.79197" lon="6.33321">
        <ele>1093</ele>
        <time>2012-06-04T14:25:40Z</time>
      </trkpt>
      <trkpt lat="46.79183" lon="6.33325">
        <ele>1093</ele>
        <time>2012-06-04T14:25:53Z</time>
      </trkpt>
      <trkpt lat="46.79168" lon="6.33321">
        <ele>1092</ele>
        <time>2012-06-04T14:26:09Z</time>
      </trkpt>
      <trkpt lat="46.79154" lon="6.33325">
        <ele>1092</ele>
        <time>2012-06-04T14:26:26Z</time>
      </trkpt>
      <trkpt lat="46.79147" lon="6.33325">
        <ele>1092</ele>
        <time>2012-06-04T14:26:45Z</time>
      </trkpt>
      <trkpt lat="46.79129" lon="6.33333">
        <ele>1090</ele>
        <time>2012-06-04T14:27:20Z</time>
      </trkpt>
      <trkpt lat="46.79111" lon="6.33349">
        <ele>1089</ele>
        <time>2012-06-04T14:27:40Z</time>
      </trkpt>
      <trkpt lat="46.79104" lon="6.33355">
        <ele>1087</ele>
        <time>2012-06-04T14:27:56Z</time>
      </trkpt>
      <trkpt lat="46.79101" lon="6.33351">
        <ele>1087</ele>
        <time>2012-06-04T14:28:27Z</time>
      </trkpt>
      <trkpt lat="46.79099" lon="6.33351">
        <ele>1086</ele>
        <time>2012-06-04T14:28:31Z</time>
      </trkpt>
      <trkpt lat="46.79096" lon="6.33343">
        <ele>1086</ele>
        <time>2012-06-04T14:28:36Z</time>
      </trkpt>
      <trkpt lat="46.79087" lon="6.33312">
        <ele>1086</ele>
        <time>2012-06-04T14:28:54Z</time>
      </trkpt>
      <trkpt lat="46.79078" lon="6.33283">
        <ele>1087</ele>
        <time>2012-06-04T14:29:12Z</time>
      </trkpt>
      <trkpt lat="46.79078" lon="6.33264">
        <ele>1087</ele>
        <time>2012-06-04T14:29:22Z</time>
      </trkpt>
      <trkpt lat="46.79063" lon="6.33235">
        <ele>1085</ele>
        <time>2012-06-04T14:29:40Z</time>
      </trkpt>
      <trkpt lat="46.7904" lon="6.332">
        <ele>1083</ele>
        <time>2012-06-04T14:30:01Z</time>
      </trkpt>
      <trkpt lat="46.79018" lon="6.33177">
        <ele>1083</ele>
        <time>2012-06-04T14:30:22Z</time>
      </trkpt>
      <trkpt lat="46.79004" lon="6.33157">
        <ele>1085</ele>
        <time>2012-06-04T14:30:38Z</time>
      </trkpt>
      <trkpt lat="46.78997" lon="6.33144">
        <ele>1086</ele>
        <time>2012-06-04T14:30:53Z</time>
      </trkpt>
      <trkpt lat="46.78995" lon="6.33142">
        <ele>1086</ele>
        <time>2012-06-04T14:30:55Z</time>
      </trkpt>
      <trkpt lat="46.7898" lon="6.33122">
        <ele>1085</ele>
        <time>2012-06-04T14:31:14Z</time>
      </trkpt>
      <trkpt lat="46.78977" lon="6.33118">
        <ele>1084</ele>
        <time>2012-06-04T14:31:16Z</time>
      </trkpt>
      <trkpt lat="46.78971" lon="6.33109">
        <ele>1084</ele>
        <time>2012-06-04T14:31:22Z</time>
      </trkpt>
      <trkpt lat="46.78956" lon="6.33091">
        <ele>1085</ele>
        <time>2012-06-04T14:31:40Z</time>
      </trkpt>
      <trkpt lat="46.78942" lon="6.33079">
        <ele>1086</ele>
        <time>2012-06-04T14:31:57Z</time>
      </trkpt>
      <trkpt lat="46.7894" lon="6.33078">
        <ele>1086</ele>
        <time>2012-06-04T14:31:59Z</time>
      </trkpt>
      <trkpt lat="46.78926" lon="6.33072">
        <ele>1088</ele>
        <time>2012-06-04T14:32:14Z</time>
      </trkpt>
      <trkpt lat="46.7892" lon="6.33067">
        <ele>1089</ele>
        <time>2012-06-04T14:32:20Z</time>
      </trkpt>
      <trkpt lat="46.78911" lon="6.33054">
        <ele>1089</ele>
        <time>2012-06-04T14:32:30Z</time>
      </trkpt>
      <trkpt lat="46.78894" lon="6.33022">
        <ele>1090</ele>
        <time>2012-06-04T14:32:55Z</time>
      </trkpt>
      <trkpt lat="46.78874" lon="6.32996">
        <ele>1091</ele>
        <time>2012-06-04T14:33:17Z</time>
      </trkpt>
      <trkpt lat="46.78866" lon="6.32992">
        <ele>1092</ele>
        <time>2012-06-04T14:33:28Z</time>
      </trkpt>
      <trkpt lat="46.78851" lon="6.33007">
        <ele>1096</ele>
        <time>2012-06-04T14:33:49Z</time>
      </trkpt>
      <trkpt lat="46.78845" lon="6.33009">
        <ele>1096</ele>
        <time>2012-06-04T14:34:00Z</time>
      </trkpt>
      <trkpt lat="46.78845" lon="6.33018">
        <ele>1097</ele>
        <time>2012-06-04T14:34:05Z</time>
      </trkpt>
      <trkpt lat="46.78848" lon="6.33025">
        <ele>1097</ele>
        <time>2012-06-04T14:34:10Z</time>
      </trkpt>
      <trkpt lat="46.78856" lon="6.33053">
        <ele>1097</ele>
        <time>2012-06-04T14:34:27Z</time>
      </trkpt>
      <trkpt lat="46.78863" lon="6.33078">
        <ele>1098</ele>
        <time>2012-06-04T14:34:44Z</time>
      </trkpt>
      <trkpt lat="46.78869" lon="6.33103">
        <ele>1099</ele>
        <time>2012-06-04T14:34:59Z</time>
      </trkpt>
      <trkpt lat="46.7887" lon="6.3311">
        <ele>1099</ele>
        <time>2012-06-04T14:35:03Z</time>
      </trkpt>
      <trkpt lat="46.78875" lon="6.33145">
        <ele>1100</ele>
        <time>2012-06-04T14:35:25Z</time>
      </trkpt>
      <trkpt lat="46.78881" lon="6.33181">
        <ele>1101</ele>
        <time>2012-06-04T14:35:53Z</time>
      </trkpt>
      <trkpt lat="46.78881" lon="6.33192">
        <ele>1102</ele>
        <time>2012-06-04T14:36:16Z</time>
      </trkpt>
      <trkpt lat="46.7888" lon="6.33196">
        <ele>1104</ele>
        <time>2012-06-04T14:37:17Z</time>
      </trkpt>
      <trkpt lat="46.7888" lon="6.33202">
        <ele>1105</ele>
        <time>2012-06-04T14:38:02Z</time>
      </trkpt>
      <trkpt lat="46.78879" lon="6.33207">
        <ele>1106</ele>
        <time>2012-06-04T14:38:37Z</time>
      </trkpt>
      <trkpt lat="46.78878" lon="6.3321">
        <ele>1108</ele>
        <time>2012-06-04T14:40:46Z</time>
      </trkpt>
      <trkpt lat="46.78878" lon="6.3321">
        <ele>1109</ele>
        <time>2012-06-04T14:41:28Z</time>
      </trkpt>
      <trkpt lat="46.78878" lon="6.3321">
        <ele>1110</ele>
        <time>2012-06-04T14:41:54Z</time>
      </trkpt>
      <trkpt lat="46.78879" lon="6.33207">
        <ele>1109</ele>
        <time>2012-06-04T14:42:44Z</time>
      </trkpt>
      <trkpt lat="46.78878" lon="6.33208">
        <ele>1111</ele>
        <time>2012-06-04T14:43:54Z</time>
      </trkpt>
      <trkpt lat="46.78878" lon="6.33208">
        <ele>1111</ele>
        <time>2012-06-04T14:44:39Z</time>
      </trkpt>
      <trkpt lat="46.78874" lon="6.33202">
        <ele>1110</ele>
        <time>2012-06-04T14:45:06Z</time>
      </trkpt>
      <trkpt lat="46.78874" lon="6.33184">
        <ele>1110</ele>
        <time>2012-06-04T14:45:20Z</time>
      </trkpt>
      <trkpt lat="46.78872" lon="6.33173">
        <ele>1110</ele>
        <time>2012-06-04T14:45:30Z</time>
      </trkpt>
      <trkpt lat="46.78868" lon="6.33146">
        <ele>1110</ele>
        <time>2012-06-04T14:45:46Z</time>
      </trkpt>
      <trkpt lat="46.78864" lon="6.33143">
        <ele>1111</ele>
        <time>2012-06-04T14:45:51Z</time>
      </trkpt>
      <trkpt lat="46.78862" lon="6.33146">
        <ele>1111</ele>
        <time>2012-06-04T14:45:54Z</time>
      </trkpt>
      <trkpt lat="46.78846" lon="6.33168">
        <ele>1110</ele>
        <time>2012-06-04T14:46:13Z</time>
      </trkpt>
      <trkpt lat="46.78841" lon="6.33174">
        <ele>1111</ele>
        <time>2012-06-04T14:46:19Z</time>
      </trkpt>
      <trkpt lat="46.7882" lon="6.33198">
        <ele>1111</ele>
        <time>2012-06-04T14:46:38Z</time>
      </trkpt>
      <trkpt lat="46.78815" lon="6.33204">
        <ele>1112</ele>
        <time>2012-06-04T14:46:53Z</time>
      </trkpt>
      <trkpt lat="46.78811" lon="6.33208">
        <ele>1112</ele>
        <time>2012-06-04T14:47:10Z</time>
      </trkpt>
      <trkpt lat="46.78804" lon="6.33203">
        <ele>1111</ele>
        <time>2012-06-04T14:47:27Z</time>
      </trkpt>
      <trkpt lat="46.78801" lon="6.332">
        <ele>1110</ele>
        <time>2012-06-04T14:47:49Z</time>
      </trkpt>
      <trkpt lat="46.78798" lon="6.33207">
        <ele>1110</ele>
        <time>2012-06-04T14:47:55Z</time>
      </trkpt>
      <trkpt lat="46.78795" lon="6.33212">
        <ele>1109</ele>
        <time>2012-06-04T14:47:59Z</time>
      </trkpt>
      <trkpt lat="46.78781" lon="6.33226">
        <ele>1108</ele>
        <time>2012-06-04T14:48:13Z</time>
      </trkpt>
      <trkpt lat="46.78768" lon="6.33238">
        <ele>1107</ele>
        <time>2012-06-04T14:48:28Z</time>
      </trkpt>
      <trkpt lat="46.78756" lon="6.33242">
        <ele>1106</ele>
        <time>2012-06-04T14:48:43Z</time>
      </trkpt>
      <trkpt lat="46.78749" lon="6.33246">
        <ele>1106</ele>
        <time>2012-06-04T14:49:02Z</time>
      </trkpt>
      <trkpt lat="46.78751" lon="6.33258">
        <ele>1104</ele>
        <time>2012-06-04T14:50:58Z</time>
      </trkpt>
      <trkpt lat="46.78745" lon="6.33263">
        <ele>1103</ele>
        <time>2012-06-04T14:51:16Z</time>
      </trkpt>
      <trkpt lat="46.78745" lon="6.33262">
        <ele>1102</ele>
        <time>2012-06-04T14:51:49Z</time>
      </trkpt>
      <trkpt lat="46.78744" lon="6.33261">
        <ele>1102</ele>
        <time>2012-06-04T14:52:23Z</time>
      </trkpt>
      <trkpt lat="46.78744" lon="6.33262">
        <ele>1101</ele>
        <time>2012-06-04T14:53:38Z</time>
      </trkpt>
      <trkpt lat="46.78736" lon="6.33267">
        <ele>1099</ele>
        <time>2012-06-04T14:54:55Z</time>
      </trkpt>
      <trkpt lat="46.78734" lon="6.33267">
        <ele>1098</ele>
        <time>2012-06-04T14:55:34Z</time>
      </trkpt>
      <trkpt lat="46.78734" lon="6.33267">
        <ele>1097</ele>
        <time>2012-06-04T14:55:48Z</time>
      </trkpt>
      <trkpt lat="46.78738" lon="6.33292">
        <ele>1096</ele>
        <time>2012-06-04T14:56:07Z</time>
      </trkpt>
      <trkpt lat="46.78744" lon="6.3332">
        <ele>1096</ele>
        <time>2012-06-04T14:56:26Z</time>
      </trkpt>
      <trkpt lat="46.7875" lon="6.33345">
        <ele>1096</ele>
        <time>2012-06-04T14:56:44Z</time>
      </trkpt>
      <trkpt lat="46.78752" lon="6.33372">
        <ele>1096</ele>
        <time>2012-06-04T14:57:03Z</time>
      </trkpt>
      <trkpt lat="46.78756" lon="6.33399">
        <ele>1095</ele>
        <time>2012-06-04T14:57:21Z</time>
      </trkpt>
      <trkpt lat="46.78765" lon="6.3342">
        <ele>1095</ele>
        <time>2012-06-04T14:57:39Z</time>
      </trkpt>
      <trkpt lat="46.78775" lon="6.33445">
        <ele>1095</ele>
        <time>2012-06-04T14:57:58Z</time>
      </trkpt>
      <trkpt lat="46.78783" lon="6.33467">
        <ele>1095</ele>
        <time>2012-06-04T14:58:16Z</time>
      </trkpt>
      <trkpt lat="46.78791" lon="6.33478">
        <ele>1096</ele>
        <time>2012-06-04T14:58:28Z</time>
      </trkpt>
      <trkpt lat="46.78806" lon="6.33505">
        <ele>1097</ele>
        <time>2012-06-04T14:58:52Z</time>
      </trkpt>
      <trkpt lat="46.78823" lon="6.33526">
        <ele>1098</ele>
        <time>2012-06-04T14:59:16Z</time>
      </trkpt>
      <trkpt lat="46.78834" lon="6.33546">
        <ele>1098</ele>
        <time>2012-06-04T14:59:34Z</time>
      </trkpt>
      <trkpt lat="46.78843" lon="6.33565">
        <ele>1098</ele>
        <time>2012-06-04T14:59:56Z</time>
      </trkpt>
      <trkpt lat="46.78853" lon="6.33571">
        <ele>1099</ele>
        <time>2012-06-04T15:00:16Z</time>
      </trkpt>
      <trkpt lat="46.78854" lon="6.33572">
        <ele>1099</ele>
        <time>2012-06-04T15:00:18Z</time>
      </trkpt>
      <trkpt lat="46.78867" lon="6.33573">
        <ele>1100</ele>
        <time>2012-06-04T15:00:33Z</time>
      </trkpt>
      <trkpt lat="46.78874" lon="6.33566">
        <ele>1099</ele>
        <time>2012-06-04T15:00:42Z</time>
      </trkpt>
      <trkpt lat="46.78891" lon="6.33554">
        <ele>1098</ele>
        <time>2012-06-04T15:00:58Z</time>
      </trkpt>
      <trkpt lat="46.78894" lon="6.33553">
        <ele>1098</ele>
        <time>2012-06-04T15:01:00Z</time>
      </trkpt>
      <trkpt lat="46.78912" lon="6.33545">
        <ele>1097</ele>
        <time>2012-06-04T15:01:16Z</time>
      </trkpt>
      <trkpt lat="46.7893" lon="6.33545">
        <ele>1097</ele>
        <time>2012-06-04T15:01:31Z</time>
      </trkpt>
      <trkpt lat="46.78946" lon="6.33542">
        <ele>1098</ele>
        <time>2012-06-04T15:01:45Z</time>
      </trkpt>
      <trkpt lat="46.78962" lon="6.33543">
        <ele>1098</ele>
        <time>2012-06-04T15:01:58Z</time>
      </trkpt>
      <trkpt lat="46.7897" lon="6.33538">
        <ele>1098</ele>
        <time>2012-06-04T15:02:08Z</time>
      </trkpt>
      <trkpt lat="46.78983" lon="6.33525">
        <ele>1096</ele>
        <time>2012-06-04T15:02:25Z</time>
      </trkpt>
      <trkpt lat="46.7899" lon="6.33517">
        <ele>1096</ele>
        <time>2012-06-04T15:02:40Z</time>
      </trkpt>
      <trkpt lat="46.79001" lon="6.33505">
        <ele>1096</ele>
        <time>2012-06-04T15:02:56Z</time>
      </trkpt>
      <trkpt lat="46.79012" lon="6.3351">
        <ele>1095</ele>
        <time>2012-06-04T15:03:13Z</time>
      </trkpt>
      <trkpt lat="46.79023" lon="6.3353">
        <ele>1093</ele>
        <time>2012-06-04T15:03:42Z</time>
      </trkpt>
      <trkpt lat="46.79034" lon="6.33544">
        <ele>1093</ele>
        <time>2012-06-04T15:04:03Z</time>
      </trkpt>
      <trkpt lat="46.79045" lon="6.33562">
        <ele>1095</ele>
        <time>2012-06-04T15:04:22Z</time>
      </trkpt>
      <trkpt lat="46.79048" lon="6.33569">
        <ele>1095</ele>
        <time>2012-06-04T15:04:27Z</time>
      </trkpt>
      <trkpt lat="46.79054" lon="6.33583">
        <ele>1095</ele>
        <time>2012-06-04T15:04:37Z</time>
      </trkpt>
      <trkpt lat="46.79065" lon="6.33615">
        <ele>1097</ele>
        <time>2012-06-04T15:05:00Z</time>
      </trkpt>
      <trkpt lat="46.79072" lon="6.33634">
        <ele>1098</ele>
        <time>2012-06-04T15:05:16Z</time>
      </trkpt>
      <trkpt lat="46.79084" lon="6.33659">
        <ele>1099</ele>
        <time>2012-06-04T15:05:41Z</time>
      </trkpt>
      <trkpt lat="46.79095" lon="6.3368">
        <ele>1099</ele>
        <time>2012-06-04T15:06:00Z</time>
      </trkpt>
      <trkpt lat="46.79099" lon="6.33687">
        <ele>1099</ele>
        <time>2012-06-04T15:06:06Z</time>
      </trkpt>
      <trkpt lat="46.79108" lon="6.33703">
        <ele>1100</ele>
        <time>2012-06-04T15:06:19Z</time>
      </trkpt>
      <trkpt lat="46.7911" lon="6.33709">
        <ele>1100</ele>
        <time>2012-06-04T15:06:24Z</time>
      </trkpt>
      <trkpt lat="46.7912" lon="6.33728">
        <ele>1100</ele>
        <time>2012-06-04T15:06:42Z</time>
      </trkpt>
      <trkpt lat="46.79129" lon="6.33746">
        <ele>1101</ele>
        <time>2012-06-04T15:07:01Z</time>
      </trkpt>
      <trkpt lat="46.79138" lon="6.33762">
        <ele>1102</ele>
        <time>2012-06-04T15:07:19Z</time>
      </trkpt>
      <trkpt lat="46.79138" lon="6.33766">
        <ele>1102</ele>
        <time>2012-06-04T15:07:31Z</time>
      </trkpt>
      <trkpt lat="46.79144" lon="6.33776">
        <ele>1101</ele>
        <time>2012-06-04T15:07:41Z</time>
      </trkpt>
      <trkpt lat="46.79166" lon="6.33774">
        <ele>1098</ele>
        <time>2012-06-04T15:08:05Z</time>
      </trkpt>
      <trkpt lat="46.79191" lon="6.3376">
        <ele>1098</ele>
        <time>2012-06-04T15:08:30Z</time>
      </trkpt>
      <trkpt lat="46.79201" lon="6.33753">
        <ele>1099</ele>
        <time>2012-06-04T15:08:44Z</time>
      </trkpt>
      <trkpt lat="46.79211" lon="6.33738">
        <ele>1102</ele>
        <time>2012-06-04T15:09:02Z</time>
      </trkpt>
      <trkpt lat="46.79221" lon="6.33731">
        <ele>1103</ele>
        <time>2012-06-04T15:09:16Z</time>
      </trkpt>
      <trkpt lat="46.79223" lon="6.33728">
        <ele>1102</ele>
        <time>2012-06-04T15:09:18Z</time>
      </trkpt>
      <trkpt lat="46.7924" lon="6.33694">
        <ele>1102</ele>
        <time>2012-06-04T15:09:43Z</time>
      </trkpt>
      <trkpt lat="46.7925" lon="6.33662">
        <ele>1102</ele>
        <time>2012-06-04T15:10:05Z</time>
      </trkpt>
      <trkpt lat="46.79258" lon="6.33623">
        <ele>1102</ele>
        <time>2012-06-04T15:10:30Z</time>
      </trkpt>
      <trkpt lat="46.79265" lon="6.33579">
        <ele>1101</ele>
        <time>2012-06-04T15:10:56Z</time>
      </trkpt>
      <trkpt lat="46.79265" lon="6.33541">
        <ele>1101</ele>
        <time>2012-06-04T15:11:18Z</time>
      </trkpt>
      <trkpt lat="46.79263" lon="6.3353">
        <ele>1101</ele>
        <time>2012-06-04T15:11:37Z</time>
      </trkpt>
      <trkpt lat="46.79262" lon="6.33525">
        <ele>1100</ele>
        <time>2012-06-04T15:12:00Z</time>
      </trkpt>
      <trkpt lat="46.7927" lon="6.33516">
        <ele>1100</ele>
        <time>2012-06-04T15:12:15Z</time>
      </trkpt>
      <trkpt lat="46.79278" lon="6.33506">
        <ele>1099</ele>
        <time>2012-06-04T15:12:25Z</time>
      </trkpt>
      <trkpt lat="46.79286" lon="6.33472">
        <ele>1096</ele>
        <time>2012-06-04T15:12:49Z</time>
      </trkpt>
      <trkpt lat="46.79293" lon="6.33443">
        <ele>1096</ele>
        <time>2012-06-04T15:13:09Z</time>
      </trkpt>
      <trkpt lat="46.79309" lon="6.33413">
        <ele>1094</ele>
        <time>2012-06-04T15:13:31Z</time>
      </trkpt>
      <trkpt lat="46.79331" lon="6.33393">
        <ele>1091</ele>
        <time>2012-06-04T15:13:53Z</time>
      </trkpt>
      <trkpt lat="46.79358" lon="6.33373">
        <ele>1089</ele>
        <time>2012-06-04T15:14:17Z</time>
      </trkpt>
      <trkpt lat="46.79373" lon="6.33368">
        <ele>1089</ele>
        <time>2012-06-04T15:14:32Z</time>
      </trkpt>
      <trkpt lat="46.79385" lon="6.33371">
        <ele>1088</ele>
        <time>2012-06-04T15:14:47Z</time>
      </trkpt>
      <trkpt lat="46.79406" lon="6.33362">
        <ele>1086</ele>
        <time>2012-06-04T15:15:04Z</time>
      </trkpt>
      <trkpt lat="46.79408" lon="6.3336">
        <ele>1086</ele>
        <time>2012-06-04T15:15:07Z</time>
      </trkpt>
      <trkpt lat="46.79417" lon="6.33343">
        <ele>1085</ele>
        <time>2012-06-04T15:15:22Z</time>
      </trkpt>
      <trkpt lat="46.7942" lon="6.33338">
        <ele>1085</ele>
        <time>2012-06-04T15:15:26Z</time>
      </trkpt>
      <trkpt lat="46.79445" lon="6.33315">
        <ele>1084</ele>
        <time>2012-06-04T15:15:47Z</time>
      </trkpt>
      <trkpt lat="46.79457" lon="6.33285">
        <ele>1084</ele>
        <time>2012-06-04T15:16:05Z</time>
      </trkpt>
      <trkpt lat="46.7946" lon="6.33243">
        <ele>1083</ele>
        <time>2012-06-04T15:16:25Z</time>
      </trkpt>
      <trkpt lat="46.79459" lon="6.3322">
        <ele>1082</ele>
        <time>2012-06-04T15:16:38Z</time>
      </trkpt>
      <trkpt lat="46.79459" lon="6.33212">
        <ele>1081</ele>
        <time>2012-06-04T15:16:44Z</time>
      </trkpt>
      <trkpt lat="46.79459" lon="6.33206">
        <ele>1080</ele>
        <time>2012-06-04T15:16:48Z</time>
      </trkpt>
      <trkpt lat="46.79459" lon="6.33203">
        <ele>1080</ele>
        <time>2012-06-04T15:16:50Z</time>
      </trkpt>
      <trkpt lat="46.79462" lon="6.33176">
        <ele>1076</ele>
        <time>2012-06-04T15:17:11Z</time>
      </trkpt>
      <trkpt lat="46.79448" lon="6.33139">
        <ele>1074</ele>
        <time>2012-06-04T15:17:29Z</time>
      </trkpt>
      <trkpt lat="46.79449" lon="6.33107">
        <ele>1072</ele>
        <time>2012-06-04T15:17:49Z</time>
      </trkpt>
      <trkpt lat="46.7945" lon="6.33102">
        <ele>1072</ele>
        <time>2012-06-04T15:17:52Z</time>
      </trkpt>
      <trkpt lat="46.79451" lon="6.33086">
        <ele>1071</ele>
        <time>2012-06-04T15:18:01Z</time>
      </trkpt>
      <trkpt lat="46.79452" lon="6.33072">
        <ele>1071</ele>
        <time>2012-06-04T15:18:09Z</time>
      </trkpt>
      <trkpt lat="46.79451" lon="6.33036">
        <ele>1070</ele>
        <time>2012-06-04T15:18:28Z</time>
      </trkpt>
      <trkpt lat="46.79452" lon="6.33033">
        <ele>1070</ele>
        <time>2012-06-04T15:18:30Z</time>
      </trkpt>
      <trkpt lat="46.79448" lon="6.32996">
        <ele>1069</ele>
        <time>2012-06-04T15:18:51Z</time>
      </trkpt>
      <trkpt lat="46.7945" lon="6.32977">
        <ele>1068</ele>
        <time>2012-06-04T15:19:02Z</time>
      </trkpt>
      <trkpt lat="46.79452" lon="6.32946">
        <ele>1067</ele>
        <time>2012-06-04T15:19:21Z</time>
      </trkpt>
      <trkpt lat="46.7945" lon="6.32928">
        <ele>1066</ele>
        <time>2012-06-04T15:19:34Z</time>
      </trkpt>
      <trkpt lat="46.79452" lon="6.3292">
        <ele>1065</ele>
        <time>2012-06-04T15:19:40Z</time>
      </trkpt>
      <trkpt lat="46.79451" lon="6.32917">
        <ele>1066</ele>
        <time>2012-06-04T15:19:43Z</time>
      </trkpt>
      <trkpt lat="46.79452" lon="6.32906">
        <ele>1065</ele>
        <time>2012-06-04T15:19:48Z</time>
      </trkpt>
      <trkpt lat="46.79447" lon="6.32882">
        <ele>1063</ele>
        <time>2012-06-04T15:20:07Z</time>
      </trkpt>
      <trkpt lat="46.79444" lon="6.32877">
        <ele>1062</ele>
        <time>2012-06-04T15:20:11Z</time>
      </trkpt>
      <trkpt lat="46.79446" lon="6.3286">
        <ele>1064</ele>
        <time>2012-06-04T15:20:23Z</time>
      </trkpt>
      <trkpt lat="46.79446" lon="6.32838">
        <ele>1065</ele>
        <time>2012-06-04T15:20:36Z</time>
      </trkpt>
      <trkpt lat="46.79449" lon="6.32831">
        <ele>1066</ele>
        <time>2012-06-04T15:20:41Z</time>
      </trkpt>
      <trkpt lat="46.79452" lon="6.32821">
        <ele>1066</ele>
        <time>2012-06-04T15:20:48Z</time>
      </trkpt>
      <trkpt lat="46.79453" lon="6.32813">
        <ele>1066</ele>
        <time>2012-06-04T15:20:52Z</time>
      </trkpt>
      <trkpt lat="46.79459" lon="6.32766">
        <ele>1067</ele>
        <time>2012-06-04T15:21:14Z</time>
      </trkpt>
      <trkpt lat="46.79461" lon="6.32765">
        <ele>1067</ele>
        <time>2012-06-04T15:21:16Z</time>
      </trkpt>
      <trkpt lat="46.79468" lon="6.32732">
        <ele>1067</ele>
        <time>2012-06-04T15:21:32Z</time>
      </trkpt>
      <trkpt lat="46.79478" lon="6.32712">
        <ele>1066</ele>
        <time>2012-06-04T15:21:46Z</time>
      </trkpt>
      <trkpt lat="46.79482" lon="6.32701">
        <ele>1067</ele>
        <time>2012-06-04T15:21:52Z</time>
      </trkpt>
      <trkpt lat="46.79489" lon="6.32691">
        <ele>1066</ele>
        <time>2012-06-04T15:22:02Z</time>
      </trkpt>
      <trkpt lat="46.79493" lon="6.32677">
        <ele>1066</ele>
        <time>2012-06-04T15:22:11Z</time>
      </trkpt>
      <trkpt lat="46.79502" lon="6.32647">
        <ele>1066</ele>
        <time>2012-06-04T15:22:29Z</time>
      </trkpt>
      <trkpt lat="46.79503" lon="6.32644">
        <ele>1065</ele>
        <time>2012-06-04T15:22:31Z</time>
      </trkpt>
      <trkpt lat="46.7952" lon="6.32603">
        <ele>1063</ele>
        <time>2012-06-04T15:22:57Z</time>
      </trkpt>
      <trkpt lat="46.79528" lon="6.32567">
        <ele>1061</ele>
        <time>2012-06-04T15:23:17Z</time>
      </trkpt>
      <trkpt lat="46.79537" lon="6.32541">
        <ele>1062</ele>
        <time>2012-06-04T15:23:39Z</time>
      </trkpt>
      <trkpt lat="46.79547" lon="6.32524">
        <ele>1062</ele>
        <time>2012-06-04T15:23:52Z</time>
      </trkpt>
      <trkpt lat="46.79554" lon="6.32503">
        <ele>1062</ele>
        <time>2012-06-04T15:24:09Z</time>
      </trkpt>
      <trkpt lat="46.79564" lon="6.32478">
        <ele>1063</ele>
        <time>2012-06-04T15:24:31Z</time>
      </trkpt>
      <trkpt lat="46.79585" lon="6.32459">
        <ele>1065</ele>
        <time>2012-06-04T15:24:52Z</time>
      </trkpt>
      <trkpt lat="46.79617" lon="6.32429">
        <ele>1065</ele>
        <time>2012-06-04T15:25:15Z</time>
      </trkpt>
      <trkpt lat="46.79638" lon="6.32402">
        <ele>1063</ele>
        <time>2012-06-04T15:25:32Z</time>
      </trkpt>
      <trkpt lat="46.79659" lon="6.32384">
        <ele>1061</ele>
        <time>2012-06-04T15:25:48Z</time>
      </trkpt>
      <trkpt lat="46.79663" lon="6.3238">
        <ele>1061</ele>
        <time>2012-06-04T15:25:52Z</time>
      </trkpt>
      <trkpt lat="46.79674" lon="6.32368">
        <ele>1060</ele>
        <time>2012-06-04T15:26:04Z</time>
      </trkpt>
      <trkpt lat="46.79677" lon="6.32359">
        <ele>1060</ele>
        <time>2012-06-04T15:26:08Z</time>
      </trkpt>
      <trkpt lat="46.79683" lon="6.32357">
        <ele>1060</ele>
        <time>2012-06-04T15:26:12Z</time>
      </trkpt>
      <trkpt lat="46.79686" lon="6.32356">
        <ele>1060</ele>
        <time>2012-06-04T15:26:14Z</time>
      </trkpt>
      <trkpt lat="46.79689" lon="6.32355">
        <ele>1060</ele>
        <time>2012-06-04T15:26:29Z</time>
      </trkpt>
      <trkpt lat="46.79695" lon="6.32359">
        <ele>1061</ele>
        <time>2012-06-04T15:27:21Z</time>
      </trkpt>
      <trkpt lat="46.79695" lon="6.32361">
        <ele>1064</ele>
        <time>2012-06-04T15:29:33Z</time>
      </trkpt>
      <trkpt lat="46.79698" lon="6.32362">
        <ele>1061</ele>
        <time>2012-06-04T15:30:31Z</time>
      </trkpt>
      <trkpt lat="46.79722" lon="6.32351">
        <ele>1059</ele>
        <time>2012-06-04T15:30:48Z</time>
      </trkpt>
      <trkpt lat="46.79729" lon="6.32345">
        <ele>1059</ele>
        <time>2012-06-04T15:30:53Z</time>
      </trkpt>
      <trkpt lat="46.79748" lon="6.32339">
        <ele>1058</ele>
        <time>2012-06-04T15:31:07Z</time>
      </trkpt>
      <trkpt lat="46.7977" lon="6.32356">
        <ele>1055</ele>
        <time>2012-06-04T15:31:32Z</time>
      </trkpt>
      <trkpt lat="46.79792" lon="6.32358">
        <ele>1054</ele>
        <time>2012-06-04T15:31:46Z</time>
      </trkpt>
      <trkpt lat="46.79794" lon="6.32357">
        <ele>1054</ele>
        <time>2012-06-04T15:31:47Z</time>
      </trkpt>
      <trkpt lat="46.79795" lon="6.32355">
        <ele>1053</ele>
        <time>2012-06-04T15:31:50Z</time>
      </trkpt>
      <trkpt lat="46.79799" lon="6.32351">
        <ele>1053</ele>
        <time>2012-06-04T15:31:53Z</time>
      </trkpt>
      <trkpt lat="46.79797" lon="6.32335">
        <ele>1051</ele>
        <time>2012-06-04T15:32:05Z</time>
      </trkpt>
      <trkpt lat="46.79792" lon="6.32331">
        <ele>1051</ele>
        <time>2012-06-04T15:32:09Z</time>
      </trkpt>
      <trkpt lat="46.79792" lon="6.32315">
        <ele>1049</ele>
        <time>2012-06-04T15:32:19Z</time>
      </trkpt>
      <trkpt lat="46.79792" lon="6.32302">
        <ele>1048</ele>
        <time>2012-06-04T15:32:30Z</time>
      </trkpt>
      <trkpt lat="46.79787" lon="6.32265">
        <ele>1046</ele>
        <time>2012-06-04T15:32:49Z</time>
      </trkpt>
      <trkpt lat="46.79784" lon="6.32238">
        <ele>1044</ele>
        <time>2012-06-04T15:33:06Z</time>
      </trkpt>
      <trkpt lat="46.79782" lon="6.32221">
        <ele>1042</ele>
        <time>2012-06-04T15:33:16Z</time>
      </trkpt>
      <trkpt lat="46.79783" lon="6.32212">
        <ele>1042</ele>
        <time>2012-06-04T15:33:22Z</time>
      </trkpt>
      <trkpt lat="46.79785" lon="6.32206">
        <ele>1041</ele>
        <time>2012-06-04T15:33:26Z</time>
      </trkpt>
      <trkpt lat="46.79798" lon="6.32165">
        <ele>1040</ele>
        <time>2012-06-04T15:33:46Z</time>
      </trkpt>
      <trkpt lat="46.798" lon="6.32163">
        <ele>1040</ele>
        <time>2012-06-04T15:33:49Z</time>
      </trkpt>
      <trkpt lat="46.79807" lon="6.32155">
        <ele>1039</ele>
        <time>2012-06-04T15:33:55Z</time>
      </trkpt>
      <trkpt lat="46.79823" lon="6.32123">
        <ele>1038</ele>
        <time>2012-06-04T15:34:15Z</time>
      </trkpt>
      <trkpt lat="46.79836" lon="6.32089">
        <ele>1038</ele>
        <time>2012-06-04T15:34:37Z</time>
      </trkpt>
      <trkpt lat="46.79843" lon="6.32072">
        <ele>1038</ele>
        <time>2012-06-04T15:34:47Z</time>
      </trkpt>
      <trkpt lat="46.79854" lon="6.32054">
        <ele>1037</ele>
        <time>2012-06-04T15:35:06Z</time>
      </trkpt>
      <trkpt lat="46.79854" lon="6.32049">
        <ele>1037</ele>
        <time>2012-06-04T15:35:39Z</time>
      </trkpt>
      <trkpt lat="46.79859" lon="6.32039">
        <ele>1036</ele>
        <time>2012-06-04T15:36:04Z</time>
      </trkpt>
      <trkpt lat="46.79877" lon="6.32018">
        <ele>1034</ele>
        <time>2012-06-04T15:36:22Z</time>
      </trkpt>
      <trkpt lat="46.79886" lon="6.32013">
        <ele>1033</ele>
        <time>2012-06-04T15:36:31Z</time>
      </trkpt>
      <trkpt lat="46.79915" lon="6.32005">
        <ele>1032</ele>
        <time>2012-06-04T15:36:59Z</time>
      </trkpt>
      <trkpt lat="46.79938" lon="6.32018">
        <ele>1029</ele>
        <time>2012-06-04T15:37:17Z</time>
      </trkpt>
      <trkpt lat="46.79955" lon="6.32034">
        <ele>1028</ele>
        <time>2012-06-04T15:37:33Z</time>
      </trkpt>
      <trkpt lat="46.79962" lon="6.32045">
        <ele>1027</ele>
        <time>2012-06-04T15:37:46Z</time>
      </trkpt>
      <trkpt lat="46.79978" lon="6.32053">
        <ele>1027</ele>
        <time>2012-06-04T15:38:03Z</time>
      </trkpt>
      <trkpt lat="46.79997" lon="6.32063">
        <ele>1024</ele>
        <time>2012-06-04T15:38:20Z</time>
      </trkpt>
      <trkpt lat="46.80007" lon="6.32067">
        <ele>1022</ele>
        <time>2012-06-04T15:38:33Z</time>
      </trkpt>
      <trkpt lat="46.80022" lon="6.32059">
        <ele>1019</ele>
        <time>2012-06-04T15:38:46Z</time>
      </trkpt>
      <trkpt lat="46.80041" lon="6.32041">
        <ele>1015</ele>
        <time>2012-06-04T15:39:06Z</time>
      </trkpt>
      <trkpt lat="46.80053" lon="6.3203">
        <ele>1012</ele>
        <time>2012-06-04T15:39:21Z</time>
      </trkpt>
      <trkpt lat="46.80056" lon="6.32023">
        <ele>1009</ele>
        <time>2012-06-04T15:39:38Z</time>
      </trkpt>
      <trkpt lat="46.80066" lon="6.32018">
        <ele>1005</ele>
        <time>2012-06-04T15:39:51Z</time>
      </trkpt>
      <trkpt lat="46.80084" lon="6.32032">
        <ele>1002</ele>
        <time>2012-06-04T15:40:07Z</time>
      </trkpt>
      <trkpt lat="46.80097" lon="6.32051">
        <ele>999</ele>
        <time>2012-06-04T15:40:23Z</time>
      </trkpt>
      <trkpt lat="46.80118" lon="6.32073">
        <ele>996</ele>
        <time>2012-06-04T15:40:44Z</time>
      </trkpt>
      <trkpt lat="46.80144" lon="6.32078">
        <ele>995</ele>
        <time>2012-06-04T15:41:04Z</time>
      </trkpt>
      <trkpt lat="46.8017" lon="6.3207">
        <ele>992</ele>
        <time>2012-06-04T15:41:25Z</time>
      </trkpt>
      <trkpt lat="46.80188" lon="6.32057">
        <ele>988</ele>
        <time>2012-06-04T15:41:47Z</time>
      </trkpt>
      <trkpt lat="46.80195" lon="6.32049">
        <ele>986</ele>
        <time>2012-06-04T15:42:12Z</time>
      </trkpt>
      <trkpt lat="46.80211" lon="6.32042">
        <ele>985</ele>
        <time>2012-06-04T15:42:36Z</time>
      </trkpt>
      <trkpt lat="46.80236" lon="6.3206">
        <ele>985</ele>
        <time>2012-06-04T15:42:55Z</time>
      </trkpt>
      <trkpt lat="46.80266" lon="6.32058">
        <ele>982</ele>
        <time>2012-06-04T15:43:15Z</time>
      </trkpt>
      <trkpt lat="46.80279" lon="6.3204">
        <ele>979</ele>
        <time>2012-06-04T15:43:33Z</time>
      </trkpt>
      <trkpt lat="46.80282" lon="6.32036">
        <ele>978</ele>
        <time>2012-06-04T15:43:38Z</time>
      </trkpt>
      <trkpt lat="46.80283" lon="6.32026">
        <ele>977</ele>
        <time>2012-06-04T15:43:40Z</time>
      </trkpt>
      <trkpt lat="46.80296" lon="6.32033">
        <ele>974</ele>
        <time>2012-06-04T15:43:54Z</time>
      </trkpt>
      <trkpt lat="46.80319" lon="6.32031">
        <ele>972</ele>
        <time>2012-06-04T15:44:17Z</time>
      </trkpt>
      <trkpt lat="46.8033" lon="6.32042">
        <ele>971</ele>
        <time>2012-06-04T15:44:38Z</time>
      </trkpt>
      <trkpt lat="46.80341" lon="6.32039">
        <ele>971</ele>
        <time>2012-06-04T15:44:45Z</time>
      </trkpt>
      <trkpt lat="46.80346" lon="6.32035">
        <ele>971</ele>
        <time>2012-06-04T15:45:02Z</time>
      </trkpt>
      <trkpt lat="46.80355" lon="6.32047">
        <ele>974</ele>
        <time>2012-06-04T15:45:23Z</time>
      </trkpt>
      <trkpt lat="46.80359" lon="6.32056">
        <ele>975</ele>
        <time>2012-06-04T15:45:38Z</time>
      </trkpt>
      <trkpt lat="46.80371" lon="6.32072">
        <ele>979</ele>
        <time>2012-06-04T15:45:57Z</time>
      </trkpt>
      <trkpt lat="46.80402" lon="6.32094">
        <ele>982</ele>
        <time>2012-06-04T15:46:25Z</time>
      </trkpt>
      <trkpt lat="46.80413" lon="6.32104">
        <ele>985</ele>
        <time>2012-06-04T15:46:43Z</time>
      </trkpt>
      <trkpt lat="46.80433" lon="6.32113">
        <ele>988</ele>
        <time>2012-06-04T15:47:03Z</time>
      </trkpt>
      <trkpt lat="46.80459" lon="6.32122">
        <ele>991</ele>
        <time>2012-06-04T15:47:25Z</time>
      </trkpt>
      <trkpt lat="46.80473" lon="6.32144">
        <ele>994</ele>
        <time>2012-06-04T15:47:48Z</time>
      </trkpt>
      <trkpt lat="46.80479" lon="6.32152">
        <ele>995</ele>
        <time>2012-06-04T15:48:10Z</time>
      </trkpt>
      <trkpt lat="46.80485" lon="6.32152">
        <ele>993</ele>
        <time>2012-06-04T15:51:38Z</time>
      </trkpt>
      <trkpt lat="46.80512" lon="6.32167">
        <ele>993</ele>
        <time>2012-06-04T15:52:02Z</time>
      </trkpt>
      <trkpt lat="46.80519" lon="6.32175">
        <ele>994</ele>
        <time>2012-06-04T15:52:22Z</time>
      </trkpt>
      <trkpt lat="46.80529" lon="6.32191">
        <ele>994</ele>
        <time>2012-06-04T15:52:37Z</time>
      </trkpt>
      <trkpt lat="46.80536" lon="6.32204">
        <ele>995</ele>
        <time>2012-06-04T15:52:47Z</time>
      </trkpt>
      <trkpt lat="46.80555" lon="6.32225">
        <ele>997</ele>
        <time>2012-06-04T15:53:07Z</time>
      </trkpt>
      <trkpt lat="46.80571" lon="6.32243">
        <ele>998</ele>
        <time>2012-06-04T15:53:24Z</time>
      </trkpt>
      <trkpt lat="46.80576" lon="6.32249">
        <ele>999</ele>
        <time>2012-06-04T15:53:31Z</time>
      </trkpt>
      <trkpt lat="46.80577" lon="6.32253">
        <ele>999</ele>
        <time>2012-06-04T15:53:33Z</time>
      </trkpt>
      <trkpt lat="46.80578" lon="6.32256">
        <ele>999</ele>
        <time>2012-06-04T15:53:35Z</time>
      </trkpt>
      <trkpt lat="46.8059" lon="6.32268">
        <ele>1000</ele>
        <time>2012-06-04T15:53:50Z</time>
      </trkpt>
      <trkpt lat="46.80602" lon="6.32286">
        <ele>1001</ele>
        <time>2012-06-04T15:54:11Z</time>
      </trkpt>
      <trkpt lat="46.8061" lon="6.32305">
        <ele>1003</ele>
        <time>2012-06-04T15:54:29Z</time>
      </trkpt>
      <trkpt lat="46.80624" lon="6.32322">
        <ele>1005</ele>
        <time>2012-06-04T15:54:48Z</time>
      </trkpt>
      <trkpt lat="46.80645" lon="6.32348">
        <ele>1006</ele>
        <time>2012-06-04T15:55:13Z</time>
      </trkpt>
      <trkpt lat="46.8066" lon="6.32362">
        <ele>1006</ele>
        <time>2012-06-04T15:55:29Z</time>
      </trkpt>
      <trkpt lat="46.80665" lon="6.32366">
        <ele>1006</ele>
        <time>2012-06-04T15:55:34Z</time>
      </trkpt>
      <trkpt lat="46.80678" lon="6.32389">
        <ele>1006</ele>
        <time>2012-06-04T15:55:53Z</time>
      </trkpt>
      <trkpt lat="46.8069" lon="6.32408">
        <ele>1006</ele>
        <time>2012-06-04T15:56:08Z</time>
      </trkpt>
      <trkpt lat="46.80699" lon="6.32418">
        <ele>1006</ele>
        <time>2012-06-04T15:56:18Z</time>
      </trkpt>
      <trkpt lat="46.80703" lon="6.32425">
        <ele>1006</ele>
        <time>2012-06-04T15:56:23Z</time>
      </trkpt>
      <trkpt lat="46.80711" lon="6.32438">
        <ele>1005</ele>
        <time>2012-06-04T15:56:32Z</time>
      </trkpt>
      <trkpt lat="46.80721" lon="6.3245">
        <ele>1006</ele>
        <time>2012-06-04T15:56:45Z</time>
      </trkpt>
      <trkpt lat="46.80733" lon="6.32461">
        <ele>1006</ele>
        <time>2012-06-04T15:56:58Z</time>
      </trkpt>
      <trkpt lat="46.8075" lon="6.32477">
        <ele>1005</ele>
        <time>2012-06-04T15:57:16Z</time>
      </trkpt>
      <trkpt lat="46.80761" lon="6.32492">
        <ele>1005</ele>
        <time>2012-06-04T15:57:32Z</time>
      </trkpt>
      <trkpt lat="46.80768" lon="6.32502">
        <ele>1005</ele>
        <time>2012-06-04T15:57:39Z</time>
      </trkpt>
      <trkpt lat="46.80778" lon="6.32518">
        <ele>1005</ele>
        <time>2012-06-04T15:57:54Z</time>
      </trkpt>
      <trkpt lat="46.80791" lon="6.32533">
        <ele>1004</ele>
        <time>2012-06-04T15:58:07Z</time>
      </trkpt>
      <trkpt lat="46.80803" lon="6.32549">
        <ele>1003</ele>
        <time>2012-06-04T15:58:22Z</time>
      </trkpt>
      <trkpt lat="46.80822" lon="6.32563">
        <ele>1001</ele>
        <time>2012-06-04T15:58:42Z</time>
      </trkpt>
      <trkpt lat="46.80843" lon="6.32577">
        <ele>998</ele>
        <time>2012-06-04T15:59:00Z</time>
      </trkpt>
      <trkpt lat="46.8086" lon="6.3259">
        <ele>995</ele>
        <time>2012-06-04T15:59:17Z</time>
      </trkpt>
      <trkpt lat="46.8088" lon="6.32596">
        <ele>992</ele>
        <time>2012-06-04T15:59:33Z</time>
      </trkpt>
      <trkpt lat="46.80902" lon="6.32594">
        <ele>989</ele>
        <time>2012-06-04T15:59:55Z</time>
      </trkpt>
      <trkpt lat="46.80921" lon="6.32594">
        <ele>986</ele>
        <time>2012-06-04T16:00:11Z</time>
      </trkpt>
      <trkpt lat="46.80934" lon="6.32598">
        <ele>983</ele>
        <time>2012-06-04T16:00:25Z</time>
      </trkpt>
      <trkpt lat="46.80943" lon="6.32597">
        <ele>980</ele>
        <time>2012-06-04T16:00:38Z</time>
      </trkpt>
      <trkpt lat="46.80955" lon="6.32598">
        <ele>977</ele>
        <time>2012-06-04T16:00:51Z</time>
      </trkpt>
      <trkpt lat="46.80965" lon="6.32599">
        <ele>973</ele>
        <time>2012-06-04T16:01:06Z</time>
      </trkpt>
      <trkpt lat="46.8098" lon="6.32599">
        <ele>971</ele>
        <time>2012-06-04T16:01:20Z</time>
      </trkpt>
      <trkpt lat="46.80992" lon="6.32601">
        <ele>967</ele>
        <time>2012-06-04T16:01:33Z</time>
      </trkpt>
      <trkpt lat="46.81002" lon="6.32601">
        <ele>964</ele>
        <time>2012-06-04T16:01:48Z</time>
      </trkpt>
      <trkpt lat="46.81014" lon="6.32601">
        <ele>961</ele>
        <time>2012-06-04T16:02:02Z</time>
      </trkpt>
      <trkpt lat="46.81021" lon="6.326">
        <ele>958</ele>
        <time>2012-06-04T16:02:15Z</time>
      </trkpt>
      <trkpt lat="46.81039" lon="6.32597">
        <ele>955</ele>
        <time>2012-06-04T16:02:30Z</time>
      </trkpt>
      <trkpt lat="46.81035" lon="6.3258">
        <ele>953</ele>
        <time>2012-06-04T16:02:48Z</time>
      </trkpt>
      <trkpt lat="46.81013" lon="6.32558">
        <ele>950</ele>
        <time>2012-06-04T16:03:08Z</time>
      </trkpt>
      <trkpt lat="46.80991" lon="6.32541">
        <ele>950</ele>
        <time>2012-06-04T16:03:33Z</time>
      </trkpt>
      <trkpt lat="46.80981" lon="6.32522">
        <ele>948</ele>
        <time>2012-06-04T16:03:58Z</time>
      </trkpt>
      <trkpt lat="46.80968" lon="6.32503">
        <ele>945</ele>
        <time>2012-06-04T16:04:17Z</time>
      </trkpt>
      <trkpt lat="46.80964" lon="6.32492">
        <ele>943</ele>
        <time>2012-06-04T16:04:34Z</time>
      </trkpt>
      <trkpt lat="46.80953" lon="6.32484">
        <ele>940</ele>
        <time>2012-06-04T16:04:50Z</time>
      </trkpt>
      <trkpt lat="46.80949" lon="6.32479">
        <ele>937</ele>
        <time>2012-06-04T16:05:06Z</time>
      </trkpt>
      <trkpt lat="46.80943" lon="6.32473">
        <ele>935</ele>
        <time>2012-06-04T16:05:18Z</time>
      </trkpt>
      <trkpt lat="46.80935" lon="6.3247">
        <ele>931</ele>
        <time>2012-06-04T16:05:33Z</time>
      </trkpt>
      <trkpt lat="46.80936" lon="6.3246">
        <ele>929</ele>
        <time>2012-06-04T16:05:44Z</time>
      </trkpt>
      <trkpt lat="46.80951" lon="6.32438">
        <ele>926</ele>
        <time>2012-06-04T16:05:59Z</time>
      </trkpt>
      <trkpt lat="46.8096" lon="6.3242">
        <ele>923</ele>
        <time>2012-06-04T16:06:14Z</time>
      </trkpt>
      <trkpt lat="46.80959" lon="6.32413">
        <ele>920</ele>
        <time>2012-06-04T16:06:27Z</time>
      </trkpt>
      <trkpt lat="46.8096" lon="6.32401">
        <ele>917</ele>
        <time>2012-06-04T16:06:42Z</time>
      </trkpt>
      <trkpt lat="46.80945" lon="6.32409">
        <ele>914</ele>
        <time>2012-06-04T16:07:03Z</time>
      </trkpt>
      <trkpt lat="46.80938" lon="6.32402">
        <ele>911</ele>
        <time>2012-06-04T16:07:17Z</time>
      </trkpt>
      <trkpt lat="46.80937" lon="6.32394">
        <ele>908</ele>
        <time>2012-06-04T16:07:31Z</time>
      </trkpt>
      <trkpt lat="46.80926" lon="6.32398">
        <ele>905</ele>
        <time>2012-06-04T16:07:49Z</time>
      </trkpt>
      <trkpt lat="46.80918" lon="6.3241">
        <ele>904</ele>
        <time>2012-06-04T16:08:03Z</time>
      </trkpt>
      <trkpt lat="46.80907" lon="6.32437">
        <ele>905</ele>
        <time>2012-06-04T16:08:21Z</time>
      </trkpt>
      <trkpt lat="46.80898" lon="6.32445">
        <ele>905</ele>
        <time>2012-06-04T16:08:56Z</time>
      </trkpt>
      <trkpt lat="46.80898" lon="6.32423">
        <ele>905</ele>
        <time>2012-06-04T16:09:27Z</time>
      </trkpt>
      <trkpt lat="46.8091" lon="6.32408">
        <ele>906</ele>
        <time>2012-06-04T16:10:16Z</time>
      </trkpt>
      <trkpt lat="46.80909" lon="6.32396">
        <ele>907</ele>
        <time>2012-06-04T16:11:11Z</time>
      </trkpt>
      <trkpt lat="46.809" lon="6.32391">
        <ele>908</ele>
        <time>2012-06-04T16:11:52Z</time>
      </trkpt>
      <trkpt lat="46.80912" lon="6.32381">
        <ele>909</ele>
        <time>2012-06-04T16:12:43Z</time>
      </trkpt>
      <trkpt lat="46.8091" lon="6.32384">
        <ele>910</ele>
        <time>2012-06-04T16:13:23Z</time>
      </trkpt>
      <trkpt lat="46.80908" lon="6.3239">
        <ele>911</ele>
        <time>2012-06-04T16:13:48Z</time>
      </trkpt>
      <trkpt lat="46.8091" lon="6.32394">
        <ele>911</ele>
        <time>2012-06-04T16:14:30Z</time>
      </trkpt>
      <trkpt lat="46.80922" lon="6.32404">
        <ele>912</ele>
        <time>2012-06-04T16:15:01Z</time>
      </trkpt>
      <trkpt lat="46.80926" lon="6.32416">
        <ele>912</ele>
        <time>2012-06-04T16:15:33Z</time>
      </trkpt>
      <trkpt lat="46.80919" lon="6.32419">
        <ele>913</ele>
        <time>2012-06-04T16:16:37Z</time>
      </trkpt>
      <trkpt lat="46.80916" lon="6.32423">
        <ele>913</ele>
        <time>2012-06-04T16:17:41Z</time>
      </trkpt>
      <trkpt lat="46.80909" lon="6.32426">
        <ele>913</ele>
        <time>2012-06-04T16:18:33Z</time>
      </trkpt>
      <trkpt lat="46.80913" lon="6.32404">
        <ele>913</ele>
        <time>2012-06-04T16:19:09Z</time>
      </trkpt>
      <trkpt lat="46.80937" lon="6.32386">
        <ele>912</ele>
        <time>2012-06-04T16:19:33Z</time>
      </trkpt>
      <trkpt lat="46.80947" lon="6.32373">
        <ele>912</ele>
        <time>2012-06-04T16:19:54Z</time>
      </trkpt>
      <trkpt lat="46.80955" lon="6.32354">
        <ele>912</ele>
        <time>2012-06-04T16:20:22Z</time>
      </trkpt>
      <trkpt lat="46.80953" lon="6.32327">
        <ele>912</ele>
        <time>2012-06-04T16:20:44Z</time>
      </trkpt>
      <trkpt lat="46.80952" lon="6.32312">
        <ele>912</ele>
        <time>2012-06-04T16:21:01Z</time>
      </trkpt>
      <trkpt lat="46.80942" lon="6.32308">
        <ele>909</ele>
        <time>2012-06-04T16:21:17Z</time>
      </trkpt>
      <trkpt lat="46.80947" lon="6.32292">
        <ele>907</ele>
        <time>2012-06-04T16:21:30Z</time>
      </trkpt>
      <trkpt lat="46.80963" lon="6.32281">
        <ele>905</ele>
        <time>2012-06-04T16:21:46Z</time>
      </trkpt>
      <trkpt lat="46.80987" lon="6.32293">
        <ele>904</ele>
        <time>2012-06-04T16:22:06Z</time>
      </trkpt>
      <trkpt lat="46.80991" lon="6.32284">
        <ele>903</ele>
        <time>2012-06-04T16:22:13Z</time>
      </trkpt>
      <trkpt lat="46.81001" lon="6.32275">
        <ele>901</ele>
        <time>2012-06-04T16:22:26Z</time>
      </trkpt>
      <trkpt lat="46.81013" lon="6.3228">
        <ele>901</ele>
        <time>2012-06-04T16:22:33Z</time>
      </trkpt>
      <trkpt lat="46.81029" lon="6.32276">
        <ele>900</ele>
        <time>2012-06-04T16:22:45Z</time>
      </trkpt>
      <trkpt lat="46.8103" lon="6.32275">
        <ele>900</ele>
        <time>2012-06-04T16:22:46Z</time>
      </trkpt>
      <trkpt lat="46.81033" lon="6.32274">
        <ele>900</ele>
        <time>2012-06-04T16:22:49Z</time>
      </trkpt>
      <trkpt lat="46.81041" lon="6.32263">
        <ele>900</ele>
        <time>2012-06-04T16:23:02Z</time>
      </trkpt>
      <trkpt lat="46.81053" lon="6.32256">
        <ele>900</ele>
        <time>2012-06-04T16:23:16Z</time>
      </trkpt>
      <trkpt lat="46.81058" lon="6.3225">
        <ele>899</ele>
        <time>2012-06-04T16:23:31Z</time>
      </trkpt>
      <trkpt lat="46.81065" lon="6.32236">
        <ele>899</ele>
        <time>2012-06-04T16:23:50Z</time>
      </trkpt>
      <trkpt lat="46.81076" lon="6.32219">
        <ele>899</ele>
        <time>2012-06-04T16:24:12Z</time>
      </trkpt>
    </trkseg>
  </trk>
</gpx>